Darstellungsparameter: Aktuell verwendete Einstellungen:
Skalierung der Graphiken ... ?
xyx+y,   Skalierungsfaktor:      Skalierung: Modus: x, Faktor: 1
Darstellungszeitraum ... ?
Vom - - bis: - -   Zeitraum: 27.06.2020 - 01.07.2020
Min/Max/Avg-Anzeige ... ?
Zeige MMA aktuell
Zeige MMA Monat
Zeige MMA alles
Zeige --A aktuell
Zeige --A Monat
Zeige --A alles
Keine MMA-Anzeige
MMA:
Average (ber die Originaldaten)
MMA-Basis: 27.06.2020 - 01.07.2020
Quicknavigation für Darstellung... ?
Tage:      1T, 2T, 3T, 5T -1T -2T -3T -5T +1T +2T +3T +5T
Wochen: 1W, 2W, 3W -1W -2W -3W +1W +2W +3W
Monate: 1M, 3M, 6M -1M -3M -6M +1M +3M +6M
Jahre:    1J, 3J, 5J, 10J -1J -3J -5J -10J +1J +3J +5J +10J
Nutze für die Darstellung ... ?
Originaldaten oder Mittelwerte auf ...
Stundenbasis Tagesbasis Wochenbasis
Monatsbasis Jahresbasis      Datenbasis: Original-Daten
Darstellen als:
Statistik (Auto) Statistik J:M      Darstellung:
Zur Graphik,    zurück zur Übersicht aller Sensoren.
 
Tabellarische Datenbersicht: ?
 
Sensor: Nr:Datum:Temp:Abs-Feuchte:Windchill:Wind:
Aussen-T/F 1 27-06-2020 00:00:00 20.3 C 14.25 g/m*3 20.3 C 3.2 km/h
2 27-06-2020 00:05:00 20.4 C 14.33 g/m*3 20.4 C 9.7 km/h
3 27-06-2020 00:10:00 20.4 C 14.33 g/m*3 20.4 C 9.7 km/h
4 27-06-2020 00:15:00 20.4 C 14.33 g/m*3 20.4 C 4.8 km/h
5 27-06-2020 00:20:00 20.4 C 14.15 g/m*3 20.4 C 9.7 km/h
6 27-06-2020 00:25:00 20.5 C 14.23 g/m*3 20.5 C 9.7 km/h
7 27-06-2020 00:30:00 20.5 C 14.23 g/m*3 20.5 C 8.1 km/h
8 27-06-2020 00:35:00 20.4 C 14.15 g/m*3 20.4 C 1.6 km/h
9 27-06-2020 00:40:00 20.4 C 14.33 g/m*3 20.4 C 9.7 km/h
10 27-06-2020 00:45:00 20.3 C 14.42 g/m*3 20.3 C 4.8 km/h
11 27-06-2020 00:50:00 20.2 C 14.34 g/m*3 20.2 C 8.1 km/h
12 27-06-2020 00:55:00 20.1 C 14.25 g/m*3 20.1 C 3.2 km/h
13 27-06-2020 01:00:00 20 C 14.17 g/m*3 20 C 1.6 km/h
14 27-06-2020 01:05:00 19.9 C 14.09 g/m*3 19.9 C 0 km/h
15 27-06-2020 01:10:00 19.8 C 14.01 g/m*3 19.8 C 3.2 km/h
16 27-06-2020 01:15:00 19.8 C 14.18 g/m*3 19.8 C 0 km/h
17 27-06-2020 01:20:00 19.7 C 14.09 g/m*3 19.7 C 0 km/h
18 27-06-2020 01:25:00 19.5 C 13.93 g/m*3 19.5 C 0 km/h
19 27-06-2020 01:30:00 19.3 C 13.77 g/m*3 19.3 C 0 km/h
20 27-06-2020 01:35:00 19.2 C 13.85 g/m*3 19.2 C 0 km/h
21 27-06-2020 01:40:00 19 C 13.69 g/m*3 19 C 1.6 km/h
22 27-06-2020 01:45:00 18.9 C 13.77 g/m*3 18.9 C 0 km/h
23 27-06-2020 01:50:00 18.8 C 13.69 g/m*3 18.8 C 0 km/h
24 27-06-2020 01:55:00 18.8 C 13.85 g/m*3 18.8 C 0 km/h
25 27-06-2020 02:00:00 18.7 C 13.77 g/m*3 18.7 C 0 km/h
Sensor: Nr:Datum:Temp:Abs-Feuchte:Windchill:Wind:
Aussen-T/F 26 27-06-2020 02:05:00 18.6 C 13.69 g/m*3 18.6 C 0 km/h
27 27-06-2020 02:10:00 18.5 C 13.61 g/m*3 18.5 C 0 km/h
28 27-06-2020 02:15:00 18.4 C 13.53 g/m*3 18.4 C 1.6 km/h
29 27-06-2020 02:20:00 18.3 C 13.6 g/m*3 18.3 C 0 km/h
30 27-06-2020 02:25:00 18.2 C 13.52 g/m*3 18.2 C 0 km/h
31 27-06-2020 02:30:00 18.2 C 13.68 g/m*3 18.2 C 0 km/h
32 27-06-2020 02:35:00 18.2 C 13.68 g/m*3 18.2 C 0 km/h
33 27-06-2020 02:40:00 18.1 C 13.6 g/m*3 18.1 C 0 km/h
34 27-06-2020 02:45:00 18.1 C 13.6 g/m*3 18.1 C 0 km/h
35 27-06-2020 02:50:00 18.1 C 13.6 g/m*3 18.1 C 3.2 km/h
36 27-06-2020 02:55:00 18.1 C 13.75 g/m*3 18.1 C 0 km/h
37 27-06-2020 03:00:00 18.1 C 13.75 g/m*3 18.1 C 0 km/h
38 27-06-2020 03:05:00 18.2 C 13.83 g/m*3 18.2 C 0 km/h
39 27-06-2020 03:10:00 18.2 C 13.83 g/m*3 18.2 C 0 km/h
40 27-06-2020 03:15:00 18.2 C 13.99 g/m*3 18.2 C 0 km/h
41 27-06-2020 03:20:00 18.3 C 14.07 g/m*3 18.3 C 0 km/h
42 27-06-2020 03:25:00 18.3 C 13.92 g/m*3 18.3 C 0 km/h
43 27-06-2020 03:30:00 18.3 C 13.92 g/m*3 18.3 C 0 km/h
44 27-06-2020 03:35:00 18.3 C 13.92 g/m*3 18.3 C 0 km/h
45 27-06-2020 03:40:00 18.4 C 14 g/m*3 18.4 C 0 km/h
46 27-06-2020 03:45:00 18.4 C 14 g/m*3 18.4 C 1.6 km/h
47 27-06-2020 03:50:00 18.4 C 14.16 g/m*3 18.4 C 0 km/h
48 27-06-2020 03:55:00 18.4 C 14.16 g/m*3 18.4 C 0 km/h
49 27-06-2020 04:00:00 18.4 C 14 g/m*3 18.4 C 0 km/h
50 27-06-2020 04:05:00 18.4 C 14 g/m*3 18.4 C 0 km/h
Sensor: Nr:Datum:Temp:Abs-Feuchte:Windchill:Wind:
Aussen-T/F 51 27-06-2020 04:10:00 18.3 C 13.92 g/m*3 18.3 C 0 km/h
52 27-06-2020 04:15:00 18.3 C 13.92 g/m*3 18.3 C 0 km/h
53 27-06-2020 04:20:00 18.3 C 13.92 g/m*3 18.3 C 0 km/h
54 27-06-2020 04:25:00 18.2 C 13.83 g/m*3 18.2 C 0 km/h
55 27-06-2020 04:30:00 18.1 C 13.75 g/m*3 18.1 C 0 km/h
56 27-06-2020 04:35:00 18.1 C 13.75 g/m*3 18.1 C 0 km/h
57 27-06-2020 04:40:00 18 C 13.82 g/m*3 18 C 0 km/h
58 27-06-2020 04:45:00 17.9 C 13.74 g/m*3 17.9 C 0 km/h
59 27-06-2020 04:50:00 17.8 C 13.66 g/m*3 17.8 C 3.2 km/h
60 27-06-2020 04:55:00 17.8 C 13.66 g/m*3 17.8 C 1.6 km/h
61 27-06-2020 05:00:00 17.7 C 13.58 g/m*3 17.7 C 0 km/h
62 27-06-2020 05:05:00 17.6 C 13.5 g/m*3 17.6 C 0 km/h
63 27-06-2020 05:10:00 17.5 C 13.57 g/m*3 17.5 C 0 km/h
64 27-06-2020 05:15:00 17.4 C 13.49 g/m*3 17.4 C 0 km/h
65 27-06-2020 05:20:00 17.4 C 13.49 g/m*3 17.4 C 0 km/h
66 27-06-2020 05:25:00 17.3 C 13.41 g/m*3 17.3 C 0 km/h
67 27-06-2020 05:30:00 17.3 C 13.55 g/m*3 17.3 C 0 km/h
68 27-06-2020 05:35:00 17.4 C 13.63 g/m*3 17.4 C 0 km/h
69 27-06-2020 05:40:00 17.4 C 13.63 g/m*3 17.4 C 0 km/h
70 27-06-2020 05:45:00 17.4 C 13.63 g/m*3 17.4 C 1.6 km/h
71 27-06-2020 05:50:00 17.6 C 13.95 g/m*3 17.6 C 1.6 km/h
72 27-06-2020 05:55:00 17.6 C 13.95 g/m*3 17.6 C 3.2 km/h
73 27-06-2020 06:00:00 17.7 C 14.03 g/m*3 17.7 C 0 km/h
74 27-06-2020 06:05:00 17.7 C 14.03 g/m*3 17.7 C 0 km/h
75 27-06-2020 06:10:00 17.8 C 14.12 g/m*3 17.8 C 4.8 km/h
Sensor: Nr:Datum:Temp:Abs-Feuchte:Windchill:Wind:
Aussen-T/F 76 27-06-2020 06:15:00 17.9 C 14.2 g/m*3 17.9 C 3.2 km/h
77 27-06-2020 06:20:00 18.1 C 14.21 g/m*3 18.1 C 3.2 km/h
78 27-06-2020 06:25:00 18.2 C 14.3 g/m*3 18.2 C 1.6 km/h
79 27-06-2020 06:30:00 18.3 C 14.38 g/m*3 18.3 C 1.6 km/h
80 27-06-2020 06:35:00 18.4 C 14.31 g/m*3 18.4 C 3.2 km/h
81 27-06-2020 06:40:00 18.6 C 14.48 g/m*3 18.6 C 3.2 km/h
82 27-06-2020 06:45:00 18.7 C 14.57 g/m*3 18.7 C 3.2 km/h
83 27-06-2020 06:50:00 18.7 C 14.57 g/m*3 18.7 C 0 km/h
84 27-06-2020 06:55:00 18.8 C 14.49 g/m*3 18.8 C 3.2 km/h
85 27-06-2020 07:00:00 18.9 C 14.58 g/m*3 18.9 C 1.6 km/h
86 27-06-2020 07:05:00 19 C 14.67 g/m*3 19 C 0 km/h
87 27-06-2020 07:10:00 19.1 C 14.75 g/m*3 19.1 C 0 km/h
88 27-06-2020 07:15:00 19.2 C 14.68 g/m*3 19.2 C 0 km/h
89 27-06-2020 07:20:00 19.3 C 14.93 g/m*3 19.3 C 0 km/h
90 27-06-2020 07:25:00 19.6 C 15.02 g/m*3 19.6 C 8.1 km/h
91 27-06-2020 07:30:00 19.8 C 15.03 g/m*3 19.8 C 9.7 km/h
92 27-06-2020 07:35:00 20 C 15.04 g/m*3 20 C 6.4 km/h
93 27-06-2020 07:40:00 20.2 C 15.04 g/m*3 20.2 C 11.3 km/h
94 27-06-2020 07:45:00 20.3 C 15.13 g/m*3 20.3 C 9.7 km/h
95 27-06-2020 07:50:00 20.4 C 14.86 g/m*3 20.4 C 16.1 km/h
96 27-06-2020 07:55:00 20.4 C 14.86 g/m*3 20.4 C 14.5 km/h
97 27-06-2020 08:00:00 20.5 C 14.77 g/m*3 20.5 C 17.7 km/h
98 27-06-2020 08:05:00 20.5 C 14.77 g/m*3 20.5 C 17.7 km/h
99 27-06-2020 08:10:00 20.6 C 14.86 g/m*3 20.6 C 12.9 km/h
100 27-06-2020 08:15:00 20.6 C 14.68 g/m*3 20.6 C 12.9 km/h
Sensor: Nr:Datum:Temp:Abs-Feuchte:Windchill:Wind:
Aussen-T/F 101 27-06-2020 08:20:00 20.7 C 14.94 g/m*3 20.7 C 9.7 km/h
102 27-06-2020 08:25:00 20.8 C 14.85 g/m*3 20.8 C 17.7 km/h
103 27-06-2020 08:30:00 21.1 C 14.92 g/m*3 21.1 C 16.1 km/h
104 27-06-2020 08:35:00 21.3 C 14.91 g/m*3 21.3 C 14.5 km/h
105 27-06-2020 08:40:00 21.4 C 15 g/m*3 21.4 C 12.9 km/h
106 27-06-2020 08:45:00 21.5 C 14.9 g/m*3 21.5 C 9.7 km/h
107 27-06-2020 08:50:00 21.5 C 14.71 g/m*3 21.5 C 14.5 km/h
108 27-06-2020 08:55:00 21.5 C 14.71 g/m*3 21.5 C 9.7 km/h
109 27-06-2020 09:00:00 21.4 C 14.62 g/m*3 21.4 C 0 km/h
110 27-06-2020 09:05:00 21.4 C 14.81 g/m*3 21.4 C 4.8 km/h
111 27-06-2020 09:10:00 21.4 C 14.62 g/m*3 21.4 C 4.8 km/h
112 27-06-2020 09:15:00 21.4 C 14.81 g/m*3 21.4 C 3.2 km/h
113 27-06-2020 09:20:00 21.5 C 15.09 g/m*3 21.5 C 3.2 km/h
114 27-06-2020 09:25:00 21.6 C 14.98 g/m*3 21.6 C 6.4 km/h
115 27-06-2020 09:30:00 21.7 C 14.88 g/m*3 21.7 C 4.8 km/h
116 27-06-2020 09:35:00 21.8 C 14.77 g/m*3 21.8 C 4.8 km/h
117 27-06-2020 09:40:00 21.9 C 14.67 g/m*3 21.9 C 1.6 km/h
118 27-06-2020 09:45:00 22 C 14.75 g/m*3 22 C 4.8 km/h
119 27-06-2020 09:50:00 22.1 C 14.64 g/m*3 22.1 C 8.1 km/h
120 27-06-2020 09:55:00 22.2 C 14.72 g/m*3 22.2 C 8.1 km/h
121 27-06-2020 10:00:00 22.4 C 14.89 g/m*3 22.4 C 9.7 km/h
122 27-06-2020 10:05:00 22.6 C 14.87 g/m*3 22.6 C 9.7 km/h
123 27-06-2020 10:10:00 22.7 C 14.95 g/m*3 22.7 C 1.6 km/h
124 27-06-2020 10:15:00 22.8 C 15.24 g/m*3 22.8 C 3.2 km/h
125 27-06-2020 10:20:00 22.9 C 14.51 g/m*3 22.9 C 6.4 km/h
Sensor: Nr:Datum:Temp:Abs-Feuchte:Windchill:Wind:
Aussen-T/F 126 27-06-2020 10:25:00 22.9 C 14.71 g/m*3 22.9 C 9.7 km/h
127 27-06-2020 10:30:00 23 C 14.59 g/m*3 23 C 6.4 km/h
128 27-06-2020 10:35:00 23.1 C 14.68 g/m*3 23.1 C 12.9 km/h
129 27-06-2020 10:40:00 23.2 C 14.55 g/m*3 23.2 C 8.1 km/h
130 27-06-2020 10:45:00 23.3 C 14.64 g/m*3 23.3 C 8.1 km/h
131 27-06-2020 10:50:00 23.5 C 14.8 g/m*3 23.5 C 14.5 km/h
132 27-06-2020 10:55:00 23.6 C 14.46 g/m*3 23.6 C 11.3 km/h
133 27-06-2020 11:00:00 23.6 C 14.68 g/m*3 23.6 C 9.7 km/h
134 27-06-2020 11:05:00 23.6 C 14.68 g/m*3 23.6 C 11.3 km/h
135 27-06-2020 11:10:00 23.5 C 14.59 g/m*3 23.5 C 8.1 km/h
136 27-06-2020 11:15:00 23.4 C 14.72 g/m*3 23.4 C 3.2 km/h
137 27-06-2020 11:20:00 23.3 C 14.64 g/m*3 23.3 C 8.1 km/h
138 27-06-2020 11:25:00 23.1 C 14.68 g/m*3 23.1 C 6.4 km/h
139 27-06-2020 11:30:00 22.9 C 14.51 g/m*3 22.9 C 6.4 km/h
140 27-06-2020 11:35:00 22.9 C 14.51 g/m*3 22.9 C 8.1 km/h
141 27-06-2020 11:40:00 22.8 C 14.63 g/m*3 22.8 C 9.7 km/h
142 27-06-2020 11:45:00 22.7 C 14.55 g/m*3 22.7 C 9.7 km/h
143 27-06-2020 11:50:00 22.7 C 14.55 g/m*3 22.7 C 4.8 km/h
144 27-06-2020 11:55:00 22.6 C 14.66 g/m*3 22.6 C 8.1 km/h
145 27-06-2020 12:00:00 22.5 C 14.58 g/m*3 22.5 C 4.8 km/h
146 27-06-2020 12:05:00 22.4 C 14.7 g/m*3 22.4 C 11.3 km/h
147 27-06-2020 12:10:00 22.3 C 14.61 g/m*3 22.3 C 6.4 km/h
148 27-06-2020 12:15:00 22.2 C 14.72 g/m*3 22.2 C 3.2 km/h
149 27-06-2020 12:20:00 22.2 C 14.72 g/m*3 22.2 C 6.4 km/h
150 27-06-2020 12:25:00 22.3 C 15.01 g/m*3 22.3 C 4.8 km/h
Sensor: Nr:Datum:Temp:Abs-Feuchte:Windchill:Wind:
Aussen-T/F 151 27-06-2020 12:30:00 22.5 C 14.98 g/m*3 22.5 C 6.4 km/h
152 27-06-2020 12:35:00 22.7 C 15.36 g/m*3 22.7 C 4.8 km/h
153 27-06-2020 12:40:00 22.8 C 15.24 g/m*3 22.8 C 3.2 km/h
154 27-06-2020 12:45:00 22.9 C 15.33 g/m*3 22.9 C 4.8 km/h
155 27-06-2020 12:50:00 22.9 C 15.33 g/m*3 22.9 C 6.4 km/h
156 27-06-2020 12:55:00 23 C 15.42 g/m*3 23 C 8.1 km/h
157 27-06-2020 13:00:00 23 C 15.42 g/m*3 23 C 11.3 km/h
158 27-06-2020 13:05:00 23 C 15.62 g/m*3 23 C 6.4 km/h
159 27-06-2020 13:10:00 22.9 C 15.33 g/m*3 22.9 C 11.3 km/h
160 27-06-2020 13:15:00 22.9 C 15.33 g/m*3 22.9 C 3.2 km/h
161 27-06-2020 13:20:00 22.9 C 15.53 g/m*3 22.9 C 4.8 km/h
162 27-06-2020 13:25:00 22.9 C 15.33 g/m*3 22.9 C 4.8 km/h
163 27-06-2020 13:30:00 22.9 C 15.53 g/m*3 22.9 C 3.2 km/h
164 27-06-2020 13:35:00 23 C 15.42 g/m*3 23 C 4.8 km/h
165 27-06-2020 13:40:00 23.1 C 15.71 g/m*3 23.1 C 3.2 km/h
166 27-06-2020 13:45:00 23.2 C 15.8 g/m*3 23.2 C 0 km/h
167 27-06-2020 13:50:00 23.4 C 15.77 g/m*3 23.4 C 4.8 km/h
168 27-06-2020 13:55:00 23.7 C 15.83 g/m*3 23.7 C 11.3 km/h
169 27-06-2020 14:00:00 23.9 C 15.79 g/m*3 23.9 C 8.1 km/h
170 27-06-2020 14:05:00 24.2 C 15.62 g/m*3 24.2 C 14.5 km/h
171 27-06-2020 14:10:00 24.6 C 15.53 g/m*3 24.6 C 16.1 km/h
172 27-06-2020 14:15:00 24.7 C 15.62 g/m*3 24.7 C 12.9 km/h
173 27-06-2020 14:20:00 24.9 C 15.57 g/m*3 24.9 C 14.5 km/h
174 27-06-2020 14:25:00 25 C 15.19 g/m*3 25 C 12.9 km/h
175 27-06-2020 14:30:00 25.4 C 14.83 g/m*3 25.4 C 19.3 km/h
Sensor: Nr:Datum:Temp:Abs-Feuchte:Windchill:Wind:
Aussen-T/F 176 27-06-2020 14:35:00 25.8 C 14.93 g/m*3 25.8 C 19.3 km/h
177 27-06-2020 14:40:00 26.2 C 14.77 g/m*3 26.2 C 19.3 km/h
178 27-06-2020 14:45:00 26.4 C 14.69 g/m*3 26.4 C 14.5 km/h
179 27-06-2020 14:50:00 26.7 C 14.68 g/m*3 26.7 C 14.5 km/h
180 27-06-2020 14:55:00 26.8 C 14.51 g/m*3 26.8 C 24.1 km/h
181 27-06-2020 15:00:00 27.1 C 14.75 g/m*3 27.1 C 24.1 km/h
182 27-06-2020 15:05:00 27.3 C 14.65 g/m*3 27.3 C 22.5 km/h
183 27-06-2020 15:10:00 27.5 C 14.29 g/m*3 27.5 C 20.9 km/h
184 27-06-2020 15:15:00 27.7 C 14.44 g/m*3 27.7 C 14.5 km/h
185 27-06-2020 15:20:00 27.7 C 14.18 g/m*3 27.7 C 14.5 km/h
186 27-06-2020 15:25:00 27.6 C 14.1 g/m*3 27.6 C 24.1 km/h
187 27-06-2020 15:30:00 27.7 C 14.71 g/m*3 27.7 C 17.7 km/h
188 27-06-2020 15:35:00 28.2 C 14.3 g/m*3 28.2 C 17.7 km/h
189 27-06-2020 15:40:00 28.3 C 14.38 g/m*3 28.3 C 17.7 km/h
190 27-06-2020 15:45:00 28.4 C 14.18 g/m*3 28.4 C 19.3 km/h
191 27-06-2020 15:50:00 28.2 C 14.02 g/m*3 28.2 C 17.7 km/h
192 27-06-2020 15:55:00 28.3 C 14.1 g/m*3 28.3 C 19.3 km/h
193 27-06-2020 16:00:00 28.5 C 14.25 g/m*3 28.5 C 20.9 km/h
194 27-06-2020 16:05:00 28.6 C 14.61 g/m*3 28.6 C 16.1 km/h
195 27-06-2020 16:10:00 28.6 C 14.61 g/m*3 28.6 C 17.7 km/h
196 27-06-2020 16:15:00 28.5 C 14.53 g/m*3 28.5 C 16.1 km/h
197 27-06-2020 16:20:00 28.7 C 14.69 g/m*3 28.7 C 19.3 km/h
198 27-06-2020 16:25:00 28.9 C 14.57 g/m*3 28.9 C 17.7 km/h
199 27-06-2020 16:30:00 29.1 C 14.73 g/m*3 29.1 C 16.1 km/h
200 27-06-2020 16:35:00 29.1 C 14.73 g/m*3 29.1 C 17.7 km/h
Sensor: Nr:Datum:Temp:Abs-Feuchte:Windchill:Wind:
Aussen-T/F 201 27-06-2020 16:40:00 29.1 C 14.73 g/m*3 29.1 C 20.9 km/h
202 27-06-2020 16:45:00 28.9 C 14.57 g/m*3 28.9 C 17.7 km/h
203 27-06-2020 16:50:00 29.1 C 14.73 g/m*3 29.1 C 17.7 km/h
204 27-06-2020 16:55:00 29.4 C 14.68 g/m*3 29.4 C 17.7 km/h
205 27-06-2020 17:00:00 29.6 C 15.43 g/m*3 29.6 C 16.1 km/h
206 27-06-2020 17:05:00 29.8 C 14.4 g/m*3 29.8 C 20.9 km/h
207 27-06-2020 17:10:00 29.8 C 14.7 g/m*3 29.8 C 9.7 km/h
208 27-06-2020 17:15:00 29.3 C 14.31 g/m*3 29.3 C 20.9 km/h
209 27-06-2020 17:20:00 28.5 C 14.25 g/m*3 28.5 C 16.1 km/h
210 27-06-2020 17:25:00 28.6 C 14.33 g/m*3 28.6 C 9.7 km/h
211 27-06-2020 17:30:00 28.7 C 14.41 g/m*3 28.7 C 12.9 km/h
212 27-06-2020 17:35:00 28.9 C 14.57 g/m*3 28.9 C 17.7 km/h
213 27-06-2020 17:40:00 29.1 C 14.44 g/m*3 29.1 C 17.7 km/h
214 27-06-2020 17:45:00 28.5 C 14.25 g/m*3 28.5 C 16.1 km/h
215 27-06-2020 17:50:00 28.1 C 14.22 g/m*3 28.1 C 14.5 km/h
216 27-06-2020 17:55:00 27.8 C 13.72 g/m*3 27.8 C 14.5 km/h
217 27-06-2020 18:00:00 27.6 C 13.83 g/m*3 27.6 C 9.7 km/h
218 27-06-2020 18:05:00 27.2 C 13.79 g/m*3 27.2 C 19.3 km/h
219 27-06-2020 18:10:00 27.1 C 13.97 g/m*3 27.1 C 12.9 km/h
220 27-06-2020 18:15:00 27.3 C 14.39 g/m*3 27.3 C 12.9 km/h
221 27-06-2020 18:20:00 28 C 14.14 g/m*3 28 C 12.9 km/h
222 27-06-2020 18:25:00 28.5 C 13.7 g/m*3 28.5 C 14.5 km/h
223 27-06-2020 18:30:00 28.3 C 14.1 g/m*3 28.3 C 16.1 km/h
224 27-06-2020 18:35:00 28.3 C 14.38 g/m*3 28.3 C 6.4 km/h
225 27-06-2020 18:40:00 28.3 C 14.1 g/m*3 28.3 C 9.7 km/h
Sensor: Nr:Datum:Temp:Abs-Feuchte:Windchill:Wind:
Aussen-T/F 226 27-06-2020 18:45:00 28.6 C 14.33 g/m*3 28.6 C 11.3 km/h
227 27-06-2020 18:50:00 28.7 C 14.13 g/m*3 28.7 C 22.5 km/h
228 27-06-2020 18:55:00 28.6 C 14.05 g/m*3 28.6 C 12.9 km/h
229 27-06-2020 19:00:00 28.1 C 14.22 g/m*3 28.1 C 11.3 km/h
230 27-06-2020 19:05:00 27.7 C 13.91 g/m*3 27.7 C 12.9 km/h
231 27-06-2020 19:10:00 27.3 C 13.87 g/m*3 27.3 C 11.3 km/h
232 27-06-2020 19:15:00 27 C 13.64 g/m*3 27 C 14.5 km/h
233 27-06-2020 19:20:00 26.8 C 13.74 g/m*3 26.8 C 9.7 km/h
234 27-06-2020 19:25:00 26.6 C 13.59 g/m*3 26.6 C 12.9 km/h
235 27-06-2020 19:30:00 26.4 C 13.69 g/m*3 26.4 C 12.9 km/h
236 27-06-2020 19:35:00 26.3 C 13.62 g/m*3 26.3 C 11.3 km/h
237 27-06-2020 19:40:00 26.2 C 13.54 g/m*3 26.2 C 12.9 km/h
238 27-06-2020 19:45:00 26.1 C 13.46 g/m*3 26.1 C 11.3 km/h
239 27-06-2020 19:50:00 26.1 C 13.71 g/m*3 26.1 C 6.4 km/h
240 27-06-2020 19:55:00 25.9 C 13.32 g/m*3 25.9 C 9.7 km/h
241 27-06-2020 20:00:00 25.9 C 13.56 g/m*3 25.9 C 4.8 km/h
242 27-06-2020 20:05:00 25.9 C 13.56 g/m*3 25.9 C 3.2 km/h
243 27-06-2020 20:10:00 25.8 C 13.96 g/m*3 25.8 C 8.1 km/h
244 27-06-2020 20:15:00 25.7 C 13.89 g/m*3 25.7 C 8.1 km/h
245 27-06-2020 20:20:00 25.6 C 13.33 g/m*3 25.6 C 16.1 km/h
246 27-06-2020 20:25:00 25.6 C 13.57 g/m*3 25.6 C 9.7 km/h
247 27-06-2020 20:30:00 25.5 C 13.73 g/m*3 25.5 C 6.4 km/h
248 27-06-2020 20:35:00 25.4 C 13.89 g/m*3 25.4 C 8.1 km/h
249 27-06-2020 20:40:00 25.3 C 13.34 g/m*3 25.3 C 9.7 km/h
250 27-06-2020 20:45:00 25.3 C 13.34 g/m*3 25.3 C 11.3 km/h
Sensor: Nr:Datum:Temp:Abs-Feuchte:Windchill:Wind:
Aussen-T/F 251 27-06-2020 20:50:00 25.2 C 13.27 g/m*3 25.2 C 12.9 km/h
252 27-06-2020 20:55:00 25.1 C 13.2 g/m*3 25.1 C 8.1 km/h
253 27-06-2020 21:00:00 25.1 C 13.43 g/m*3 25.1 C 6.4 km/h
254 27-06-2020 21:05:00 24.9 C 13.28 g/m*3 24.9 C 9.7 km/h
255 27-06-2020 21:10:00 24.9 C 13.51 g/m*3 24.9 C 1.6 km/h
256 27-06-2020 21:15:00 24.7 C 13.35 g/m*3 24.7 C 4.8 km/h
257 27-06-2020 21:20:00 24.7 C 13.81 g/m*3 24.7 C 4.8 km/h
258 27-06-2020 21:25:00 24.4 C 13.8 g/m*3 24.4 C 9.7 km/h
259 27-06-2020 21:30:00 24.3 C 13.72 g/m*3 24.3 C 4.8 km/h
260 27-06-2020 21:35:00 24.2 C 13.86 g/m*3 24.2 C 6.4 km/h
261 27-06-2020 21:40:00 24.1 C 13.78 g/m*3 24.1 C 3.2 km/h
262 27-06-2020 21:45:00 23.9 C 13.85 g/m*3 23.9 C 8.1 km/h
263 27-06-2020 21:50:00 23.7 C 13.69 g/m*3 23.7 C 3.2 km/h
264 27-06-2020 21:55:00 23.6 C 13.82 g/m*3 23.6 C 4.8 km/h
265 27-06-2020 22:00:00 23.4 C 13.88 g/m*3 23.4 C 4.8 km/h
266 27-06-2020 22:05:00 23.3 C 13.8 g/m*3 23.3 C 3.2 km/h
267 27-06-2020 22:10:00 23.2 C 13.93 g/m*3 23.2 C 3.2 km/h
268 27-06-2020 22:15:00 23.1 C 13.85 g/m*3 23.1 C 3.2 km/h
269 27-06-2020 22:20:00 22.9 C 13.9 g/m*3 22.9 C 1.6 km/h
270 27-06-2020 22:25:00 22.8 C 13.82 g/m*3 22.8 C 4.8 km/h
271 27-06-2020 22:30:00 22.7 C 13.74 g/m*3 22.7 C 3.2 km/h
272 27-06-2020 22:35:00 22.7 C 13.94 g/m*3 22.7 C 3.2 km/h
273 27-06-2020 22:40:00 22.6 C 13.86 g/m*3 22.6 C 3.2 km/h
274 27-06-2020 22:45:00 22.6 C 14.06 g/m*3 22.6 C 3.2 km/h
275 27-06-2020 22:50:00 22.5 C 14.18 g/m*3 22.5 C 4.8 km/h
Sensor: Nr:Datum:Temp:Abs-Feuchte:Windchill:Wind:
Aussen-T/F 276 27-06-2020 22:55:00 22.4 C 14.1 g/m*3 22.4 C 3.2 km/h
277 27-06-2020 23:00:00 22.2 C 13.94 g/m*3 22.2 C 4.8 km/h
278 27-06-2020 23:05:00 22.1 C 14.05 g/m*3 22.1 C 3.2 km/h
279 27-06-2020 23:10:00 21.9 C 14.09 g/m*3 21.9 C 3.2 km/h
280 27-06-2020 23:15:00 21.8 C 14.01 g/m*3 21.8 C 0 km/h
281 27-06-2020 23:20:00 21.8 C 14.2 g/m*3 21.8 C 0 km/h
282 27-06-2020 23:25:00 21.7 C 14.12 g/m*3 21.7 C 0 km/h
283 27-06-2020 23:30:00 21.6 C 14.22 g/m*3 21.6 C 0 km/h
284 27-06-2020 23:35:00 21.6 C 14.22 g/m*3 21.6 C 0 km/h
285 27-06-2020 23:40:00 21.5 C 14.14 g/m*3 21.5 C 0 km/h
286 27-06-2020 23:45:00 21.5 C 13.95 g/m*3 21.5 C 4.8 km/h
287 27-06-2020 23:50:00 21.6 C 14.22 g/m*3 21.6 C 1.6 km/h
288 27-06-2020 23:55:00 21.6 C 14.22 g/m*3 21.6 C 1.6 km/h
289 28-06-2020 00:00:00 21.6 C 14.22 g/m*3 21.6 C 0 km/h
290 28-06-2020 00:05:00 21.6 C 14.22 g/m*3 21.6 C 3.2 km/h
291 28-06-2020 00:10:00 21.4 C 14.06 g/m*3 21.4 C 3.2 km/h
292 28-06-2020 00:15:00 21.4 C 14.06 g/m*3 21.4 C 0 km/h
293 28-06-2020 00:20:00 21.3 C 14.17 g/m*3 21.3 C 0 km/h
294 28-06-2020 00:25:00 21.2 C 14.08 g/m*3 21.2 C 0 km/h
295 28-06-2020 00:30:00 20.9 C 13.84 g/m*3 20.9 C 0 km/h
296 28-06-2020 00:35:00 20.8 C 13.94 g/m*3 20.8 C 0 km/h
297 28-06-2020 00:40:00 20.6 C 13.96 g/m*3 20.6 C 0 km/h
298 28-06-2020 00:45:00 20.4 C 13.8 g/m*3 20.4 C 0 km/h
299 28-06-2020 00:50:00 20.3 C 13.89 g/m*3 20.3 C 0 km/h
300 28-06-2020 00:55:00 20.2 C 13.81 g/m*3 20.2 C 0 km/h
Sensor: Nr:Datum:Temp:Abs-Feuchte:Windchill:Wind:
Aussen-T/F 301 28-06-2020 01:00:00 20.2 C 13.81 g/m*3 20.2 C 0 km/h
302 28-06-2020 01:05:00 20.2 C 13.99 g/m*3 20.2 C 0 km/h
303 28-06-2020 01:10:00 20.2 C 13.99 g/m*3 20.2 C 0 km/h
304 28-06-2020 01:15:00 20.1 C 13.91 g/m*3 20.1 C 0 km/h
305 28-06-2020 01:20:00 20.1 C 13.91 g/m*3 20.1 C 0 km/h
306 28-06-2020 01:25:00 20.1 C 14.08 g/m*3 20.1 C 0 km/h
307 28-06-2020 01:30:00 20 C 14 g/m*3 20 C 0 km/h
308 28-06-2020 01:35:00 20 C 14 g/m*3 20 C 0 km/h
309 28-06-2020 01:40:00 19.9 C 13.92 g/m*3 19.9 C 0 km/h
310 28-06-2020 01:45:00 19.9 C 13.92 g/m*3 19.9 C 0 km/h
311 28-06-2020 01:50:00 19.9 C 13.92 g/m*3 19.9 C 0 km/h
312 28-06-2020 01:55:00 19.9 C 13.92 g/m*3 19.9 C 0 km/h
313 28-06-2020 02:00:00 19.9 C 13.92 g/m*3 19.9 C 0 km/h
314 28-06-2020 02:05:00 20 C 14 g/m*3 20 C 0 km/h
315 28-06-2020 02:10:00 20.1 C 14.08 g/m*3 20.1 C 0 km/h
316 28-06-2020 02:15:00 20.2 C 13.99 g/m*3 20.2 C 0 km/h
317 28-06-2020 02:20:00 20.3 C 14.07 g/m*3 20.3 C 0 km/h
318 28-06-2020 02:25:00 20.4 C 14.15 g/m*3 20.4 C 0 km/h
319 28-06-2020 02:30:00 20.4 C 13.98 g/m*3 20.4 C 0 km/h
320 28-06-2020 02:35:00 20.5 C 14.06 g/m*3 20.5 C 0 km/h
321 28-06-2020 02:40:00 20.6 C 14.14 g/m*3 20.6 C 0 km/h
322 28-06-2020 02:45:00 20.6 C 14.14 g/m*3 20.6 C 0 km/h
323 28-06-2020 02:50:00 20.7 C 14.76 g/m*3 20.7 C 0 km/h
324 28-06-2020 02:55:00 20.7 C 15.12 g/m*3 20.7 C 4.8 km/h
325 28-06-2020 03:00:00 20.6 C 14.86 g/m*3 20.6 C 11.3 km/h
Sensor: Nr:Datum:Temp:Abs-Feuchte:Windchill:Wind:
Aussen-T/F 326 28-06-2020 03:05:00 20.4 C 14.86 g/m*3 20.4 C 3.2 km/h
327 28-06-2020 03:10:00 20.3 C 14.77 g/m*3 20.3 C 6.4 km/h
328 28-06-2020 03:15:00 20.3 C 14.95 g/m*3 20.3 C 1.6 km/h
329 28-06-2020 03:20:00 20.2 C 14.86 g/m*3 20.2 C 3.2 km/h
330 28-06-2020 03:25:00 20.2 C 15.04 g/m*3 20.2 C 1.6 km/h
331 28-06-2020 03:30:00 20.1 C 14.95 g/m*3 20.1 C 0 km/h
332 28-06-2020 03:35:00 19.9 C 14.95 g/m*3 19.9 C 0 km/h
333 28-06-2020 03:40:00 19.8 C 14.86 g/m*3 19.8 C 1.6 km/h
334 28-06-2020 03:45:00 19.7 C 14.77 g/m*3 19.7 C 3.2 km/h
335 28-06-2020 03:50:00 19.7 C 14.94 g/m*3 19.7 C 3.2 km/h
336 28-06-2020 03:55:00 19.7 C 14.94 g/m*3 19.7 C 0 km/h
337 28-06-2020 04:00:00 19.6 C 14.86 g/m*3 19.6 C 1.6 km/h
338 28-06-2020 04:05:00 19.6 C 14.86 g/m*3 19.6 C 0 km/h
339 28-06-2020 04:10:00 19.5 C 14.94 g/m*3 19.5 C 0 km/h
340 28-06-2020 04:15:00 19.4 C 14.85 g/m*3 19.4 C 0 km/h
341 28-06-2020 04:20:00 19.4 C 14.85 g/m*3 19.4 C 1.6 km/h
342 28-06-2020 04:25:00 19.4 C 14.85 g/m*3 19.4 C 0 km/h
343 28-06-2020 04:30:00 19.3 C 14.76 g/m*3 19.3 C 0 km/h
344 28-06-2020 04:35:00 19.3 C 14.76 g/m*3 19.3 C 1.6 km/h
345 28-06-2020 04:40:00 19.3 C 14.76 g/m*3 19.3 C 0 km/h
346 28-06-2020 04:45:00 19.3 C 14.93 g/m*3 19.3 C 0 km/h
347 28-06-2020 04:50:00 19.2 C 14.84 g/m*3 19.2 C 1.6 km/h
348 28-06-2020 04:55:00 19.2 C 14.84 g/m*3 19.2 C 1.6 km/h
349 28-06-2020 05:00:00 19.2 C 14.84 g/m*3 19.2 C 0 km/h
350 28-06-2020 05:05:00 19.1 C 14.75 g/m*3 19.1 C 0 km/h
Sensor: Nr:Datum:Temp:Abs-Feuchte:Windchill:Wind:
Aussen-T/F 351 28-06-2020 05:10:00 19.1 C 14.75 g/m*3 19.1 C 0 km/h
352 28-06-2020 05:15:00 19.1 C 14.92 g/m*3 19.1 C 0 km/h
353 28-06-2020 05:20:00 19.1 C 14.92 g/m*3 19.1 C 0 km/h
354 28-06-2020 05:25:00 19.1 C 14.75 g/m*3 19.1 C 1.6 km/h
355 28-06-2020 05:30:00 19.1 C 14.75 g/m*3 19.1 C 4.8 km/h
356 28-06-2020 05:35:00 19.2 C 14.68 g/m*3 19.2 C 0 km/h
357 28-06-2020 05:40:00 19.1 C 14.59 g/m*3 19.1 C 1.6 km/h
358 28-06-2020 05:45:00 19.1 C 14.43 g/m*3 19.1 C 3.2 km/h
359 28-06-2020 05:50:00 19.1 C 14.43 g/m*3 19.1 C 1.6 km/h
360 28-06-2020 05:55:00 19.1 C 14.26 g/m*3 19.1 C 0 km/h
361 28-06-2020 06:00:00 19.1 C 14.26 g/m*3 19.1 C 3.2 km/h
362 28-06-2020 06:05:00 19.1 C 14.26 g/m*3 19.1 C 1.6 km/h
363 28-06-2020 06:10:00 19 C 14.01 g/m*3 19 C 8.1 km/h
364 28-06-2020 06:15:00 19 C 14.18 g/m*3 19 C 4.8 km/h
365 28-06-2020 06:20:00 19 C 14.01 g/m*3 19 C 4.8 km/h
366 28-06-2020 06:25:00 19.1 C 14.1 g/m*3 19.1 C 1.6 km/h
367 28-06-2020 06:30:00 19.1 C 14.26 g/m*3 19.1 C 1.6 km/h
368 28-06-2020 06:35:00 19.1 C 14.1 g/m*3 19.1 C 3.2 km/h
369 28-06-2020 06:40:00 19.2 C 14.18 g/m*3 19.2 C 1.6 km/h
370 28-06-2020 06:45:00 19.3 C 14.1 g/m*3 19.3 C 3.2 km/h
371 28-06-2020 06:50:00 19.3 C 14.1 g/m*3 19.3 C 1.6 km/h
372 28-06-2020 06:55:00 19.4 C 14.18 g/m*3 19.4 C 3.2 km/h
373 28-06-2020 07:00:00 19.5 C 14.1 g/m*3 19.5 C 0 km/h
374 28-06-2020 07:05:00 19.6 C 14.18 g/m*3 19.6 C 0 km/h
375 28-06-2020 07:10:00 19.7 C 14.09 g/m*3 19.7 C 8.1 km/h
Sensor: Nr:Datum:Temp:Abs-Feuchte:Windchill:Wind:
Aussen-T/F 376 28-06-2020 07:15:00 19.7 C 14.09 g/m*3 19.7 C 6.4 km/h
377 28-06-2020 07:20:00 19.8 C 14.01 g/m*3 19.8 C 4.8 km/h
378 28-06-2020 07:25:00 19.8 C 14.01 g/m*3 19.8 C 6.4 km/h
379 28-06-2020 07:30:00 19.9 C 13.57 g/m*3 19.9 C 8.1 km/h
380 28-06-2020 07:35:00 20.1 C 13.56 g/m*3 20.1 C 12.9 km/h
381 28-06-2020 07:40:00 20.2 C 13.64 g/m*3 20.2 C 12.9 km/h
382 28-06-2020 07:45:00 20.3 C 13.54 g/m*3 20.3 C 12.9 km/h
383 28-06-2020 07:50:00 20.3 C 13.54 g/m*3 20.3 C 9.7 km/h
384 28-06-2020 07:55:00 20.4 C 13.62 g/m*3 20.4 C 6.4 km/h
385 28-06-2020 08:00:00 20.5 C 13.52 g/m*3 20.5 C 12.9 km/h
386 28-06-2020 08:05:00 20.6 C 13.6 g/m*3 20.6 C 14.5 km/h
387 28-06-2020 08:10:00 20.6 C 13.78 g/m*3 20.6 C 8.1 km/h
388 28-06-2020 08:15:00 20.7 C 13.5 g/m*3 20.7 C 14.5 km/h
389 28-06-2020 08:20:00 20.7 C 13.5 g/m*3 20.7 C 16.1 km/h
390 28-06-2020 08:25:00 20.7 C 13.5 g/m*3 20.7 C 12.9 km/h
391 28-06-2020 08:30:00 20.6 C 13.42 g/m*3 20.6 C 11.3 km/h
392 28-06-2020 08:35:00 20.5 C 13.52 g/m*3 20.5 C 17.7 km/h
393 28-06-2020 08:40:00 20.6 C 13.6 g/m*3 20.6 C 14.5 km/h
394 28-06-2020 08:45:00 20.8 C 13.58 g/m*3 20.8 C 11.3 km/h
395 28-06-2020 08:50:00 20.8 C 13.4 g/m*3 20.8 C 12.9 km/h
396 28-06-2020 08:55:00 20.8 C 13.22 g/m*3 20.8 C 11.3 km/h
397 28-06-2020 09:00:00 20.7 C 13.14 g/m*3 20.7 C 17.7 km/h
398 28-06-2020 09:05:00 20.6 C 13.24 g/m*3 20.6 C 12.9 km/h
399 28-06-2020 09:10:00 20.5 C 12.63 g/m*3 20.5 C 16.1 km/h
400 28-06-2020 09:15:00 20.4 C 12.56 g/m*3 20.4 C 8.1 km/h
Sensor: Nr:Datum:Temp:Abs-Feuchte:Windchill:Wind:
Aussen-T/F 401 28-06-2020 09:20:00 20.3 C 12.14 g/m*3 20.3 C 14.5 km/h
402 28-06-2020 09:25:00 20.3 C 12.14 g/m*3 20.3 C 12.9 km/h
403 28-06-2020 09:30:00 20.3 C 11.96 g/m*3 20.3 C 19.3 km/h
404 28-06-2020 09:35:00 20.2 C 11.89 g/m*3 20.2 C 19.3 km/h
405 28-06-2020 09:40:00 20 C 11.58 g/m*3 20 C 11.3 km/h
406 28-06-2020 09:45:00 19.8 C 11.61 g/m*3 19.8 C 9.7 km/h
407 28-06-2020 09:50:00 19.8 C 11.44 g/m*3 19.8 C 8.1 km/h
408 28-06-2020 09:55:00 19.8 C 11.61 g/m*3 19.8 C 11.3 km/h
409 28-06-2020 10:00:00 19.8 C 11.44 g/m*3 19.8 C 16.1 km/h
410 28-06-2020 10:05:00 19.8 C 11.27 g/m*3 19.8 C 14.5 km/h
411 28-06-2020 10:10:00 19.8 C 11.44 g/m*3 19.8 C 12.9 km/h
412 28-06-2020 10:15:00 19.8 C 11.44 g/m*3 19.8 C 16.1 km/h
413 28-06-2020 10:20:00 19.9 C 11.68 g/m*3 19.9 C 17.7 km/h
414 28-06-2020 10:25:00 20.1 C 11.65 g/m*3 20.1 C 16.1 km/h
415 28-06-2020 10:30:00 20.1 C 11.65 g/m*3 20.1 C 11.3 km/h
416 28-06-2020 10:35:00 20.1 C 11.47 g/m*3 20.1 C 16.1 km/h
417 28-06-2020 10:40:00 19.9 C 11.68 g/m*3 19.9 C 11.3 km/h
418 28-06-2020 10:45:00 19.8 C 11.44 g/m*3 19.8 C 12.9 km/h
419 28-06-2020 10:50:00 19.8 C 11.61 g/m*3 19.8 C 12.9 km/h
420 28-06-2020 10:55:00 19.9 C 11.68 g/m*3 19.9 C 9.7 km/h
421 28-06-2020 11:00:00 20.1 C 11.82 g/m*3 20.1 C 4.8 km/h
422 28-06-2020 11:05:00 20.3 C 11.96 g/m*3 20.3 C 8.1 km/h
423 28-06-2020 11:10:00 20.3 C 11.78 g/m*3 20.3 C 9.7 km/h
424 28-06-2020 11:15:00 20.4 C 11.85 g/m*3 20.4 C 9.7 km/h
425 28-06-2020 11:20:00 20.4 C 12.03 g/m*3 20.4 C 6.4 km/h
Sensor: Nr:Datum:Temp:Abs-Feuchte:Windchill:Wind:
Aussen-T/F 426 28-06-2020 11:25:00 20.5 C 12.28 g/m*3 20.5 C 4.8 km/h
427 28-06-2020 11:30:00 20.6 C 11.81 g/m*3 20.6 C 11.3 km/h
428 28-06-2020 11:35:00 20.6 C 11.81 g/m*3 20.6 C 6.4 km/h
429 28-06-2020 11:40:00 20.6 C 11.99 g/m*3 20.6 C 14.5 km/h
430 28-06-2020 11:45:00 20.4 C 11.5 g/m*3 20.4 C 9.7 km/h
431 28-06-2020 11:50:00 20.4 C 11.5 g/m*3 20.4 C 8.1 km/h
432 28-06-2020 11:55:00 20.5 C 11.39 g/m*3 20.5 C 9.7 km/h
433 28-06-2020 12:00:00 20.7 C 11.34 g/m*3 20.7 C 9.7 km/h
434 28-06-2020 12:05:00 20.8 C 11.41 g/m*3 20.8 C 11.3 km/h
435 28-06-2020 12:10:00 20.8 C 11.41 g/m*3 20.8 C 8.1 km/h
436 28-06-2020 12:15:00 20.8 C 11.23 g/m*3 20.8 C 8.1 km/h
437 28-06-2020 12:20:00 20.7 C 10.98 g/m*3 20.7 C 11.3 km/h
438 28-06-2020 12:25:00 20.5 C 11.03 g/m*3 20.5 C 9.7 km/h
439 28-06-2020 12:30:00 20.4 C 10.97 g/m*3 20.4 C 6.4 km/h
440 28-06-2020 12:35:00 20.4 C 11.14 g/m*3 20.4 C 8.1 km/h
441 28-06-2020 12:40:00 20.4 C 11.32 g/m*3 20.4 C 9.7 km/h
442 28-06-2020 12:45:00 20.4 C 11.14 g/m*3 20.4 C 9.7 km/h
443 28-06-2020 12:50:00 20.4 C 11.14 g/m*3 20.4 C 8.1 km/h
444 28-06-2020 12:55:00 20.5 C 11.21 g/m*3 20.5 C 9.7 km/h
445 28-06-2020 13:00:00 20.8 C 11.23 g/m*3 20.8 C 9.7 km/h
446 28-06-2020 13:05:00 21.3 C 11 g/m*3 21.3 C 11.3 km/h
447 28-06-2020 13:10:00 21.7 C 10.87 g/m*3 21.7 C 16.1 km/h
448 28-06-2020 13:15:00 21.8 C 10.74 g/m*3 21.8 C 11.3 km/h
449 28-06-2020 13:20:00 21.9 C 11.19 g/m*3 21.9 C 16.1 km/h
450 28-06-2020 13:25:00 22.1 C 10.93 g/m*3 22.1 C 17.7 km/h
Sensor: Nr:Datum:Temp:Abs-Feuchte:Windchill:Wind:
Aussen-T/F 451 28-06-2020 13:30:00 22 C 11.06 g/m*3 22 C 12.9 km/h
452 28-06-2020 13:35:00 22 C 10.67 g/m*3 22 C 11.3 km/h
453 28-06-2020 13:40:00 22.1 C 11.13 g/m*3 22.1 C 12.9 km/h
454 28-06-2020 13:45:00 22.1 C 10.93 g/m*3 22.1 C 11.3 km/h
455 28-06-2020 13:50:00 22.1 C 10.93 g/m*3 22.1 C 14.5 km/h
456 28-06-2020 13:55:00 22.1 C 10.93 g/m*3 22.1 C 9.7 km/h
457 28-06-2020 14:00:00 22.1 C 11.52 g/m*3 22.1 C 9.7 km/h
458 28-06-2020 14:05:00 21.6 C 11.57 g/m*3 21.6 C 11.3 km/h
459 28-06-2020 14:10:00 21 C 11.36 g/m*3 21 C 11.3 km/h
460 28-06-2020 14:15:00 20.7 C 11.52 g/m*3 20.7 C 9.7 km/h
461 28-06-2020 14:20:00 20.4 C 11.32 g/m*3 20.4 C 9.7 km/h
462 28-06-2020 14:25:00 20.1 C 11.3 g/m*3 20.1 C 11.3 km/h
463 28-06-2020 14:30:00 19.8 C 11.44 g/m*3 19.8 C 16.1 km/h
464 28-06-2020 14:35:00 19.6 C 11.48 g/m*3 19.6 C 4.8 km/h
465 28-06-2020 14:40:00 19.4 C 11.35 g/m*3 19.4 C 9.7 km/h
466 28-06-2020 14:45:00 19.4 C 11.51 g/m*3 19.4 C 4.8 km/h
467 28-06-2020 14:50:00 19.4 C 11.51 g/m*3 19.4 C 3.2 km/h
468 28-06-2020 14:55:00 19.4 C 11.51 g/m*3 19.4 C 3.2 km/h
469 28-06-2020 15:00:00 19.4 C 11.51 g/m*3 19.4 C 4.8 km/h
470 28-06-2020 15:05:00 19.3 C 11.61 g/m*3 19.3 C 8.1 km/h
471 28-06-2020 15:10:00 19.3 C 11.61 g/m*3 19.3 C 4.8 km/h
472 28-06-2020 15:15:00 19.2 C 11.54 g/m*3 19.2 C 3.2 km/h
473 28-06-2020 15:20:00 19.2 C 11.54 g/m*3 19.2 C 6.4 km/h
474 28-06-2020 15:25:00 19.3 C 11.61 g/m*3 19.3 C 4.8 km/h
475 28-06-2020 15:30:00 19.4 C 11.35 g/m*3 19.4 C 11.3 km/h
Sensor: Nr:Datum:Temp:Abs-Feuchte:Windchill:Wind:
Aussen-T/F 476 28-06-2020 15:35:00 19.4 C 11.35 g/m*3 19.4 C 11.3 km/h
477 28-06-2020 15:40:00 19.6 C 11.65 g/m*3 19.6 C 4.8 km/h
478 28-06-2020 15:45:00 19.7 C 11.55 g/m*3 19.7 C 4.8 km/h
479 28-06-2020 15:50:00 19.8 C 11.27 g/m*3 19.8 C 6.4 km/h
480 28-06-2020 15:55:00 19.9 C 11.51 g/m*3 19.9 C 8.1 km/h
481 28-06-2020 16:00:00 20 C 11.58 g/m*3 20 C 6.4 km/h
482 28-06-2020 16:05:00 20.2 C 11.54 g/m*3 20.2 C 11.3 km/h
483 28-06-2020 16:10:00 20.3 C 11.61 g/m*3 20.3 C 9.7 km/h
484 28-06-2020 16:15:00 20.5 C 11.39 g/m*3 20.5 C 6.4 km/h
485 28-06-2020 16:20:00 20.6 C 11.28 g/m*3 20.6 C 14.5 km/h
486 28-06-2020 16:25:00 20.6 C 10.92 g/m*3 20.6 C 16.1 km/h
487 28-06-2020 16:30:00 20.6 C 10.92 g/m*3 20.6 C 14.5 km/h
488 28-06-2020 16:35:00 20.5 C 10.85 g/m*3 20.5 C 16.1 km/h
489 28-06-2020 16:40:00 20.5 C 11.03 g/m*3 20.5 C 12.9 km/h
490 28-06-2020 16:45:00 20.6 C 11.1 g/m*3 20.6 C 12.9 km/h
491 28-06-2020 16:50:00 20.6 C 11.1 g/m*3 20.6 C 12.9 km/h
492 28-06-2020 16:55:00 20.5 C 11.21 g/m*3 20.5 C 9.7 km/h
493 28-06-2020 17:00:00 20.6 C 11.28 g/m*3 20.6 C 8.1 km/h
494 28-06-2020 17:05:00 20.7 C 11.52 g/m*3 20.7 C 3.2 km/h
495 28-06-2020 17:10:00 20.8 C 11.23 g/m*3 20.8 C 8.1 km/h
496 28-06-2020 17:15:00 20.8 C 11.41 g/m*3 20.8 C 12.9 km/h
497 28-06-2020 17:20:00 20.8 C 11.23 g/m*3 20.8 C 4.8 km/h
498 28-06-2020 17:25:00 20.8 C 11.23 g/m*3 20.8 C 4.8 km/h
499 28-06-2020 17:30:00 20.7 C 10.98 g/m*3 20.7 C 14.5 km/h
500 28-06-2020 17:35:00 20.6 C 11.1 g/m*3 20.6 C 11.3 km/h
Sensor: Nr:Datum:Temp:Abs-Feuchte:Windchill:Wind:
Aussen-T/F 501 28-06-2020 17:40:00 20.6 C 11.1 g/m*3 20.6 C 9.7 km/h
502 28-06-2020 17:45:00 20.7 C 11.34 g/m*3 20.7 C 6.4 km/h
503 28-06-2020 17:50:00 20.7 C 10.98 g/m*3 20.7 C 9.7 km/h
504 28-06-2020 17:55:00 20.8 C 11.23 g/m*3 20.8 C 6.4 km/h
505 28-06-2020 18:00:00 20.8 C 11.05 g/m*3 20.8 C 11.3 km/h
506 28-06-2020 18:05:00 20.7 C 10.98 g/m*3 20.7 C 6.4 km/h
507 28-06-2020 18:10:00 20.7 C 11.16 g/m*3 20.7 C 6.4 km/h
508 28-06-2020 18:15:00 20.7 C 11.16 g/m*3 20.7 C 6.4 km/h
509 28-06-2020 18:20:00 20.7 C 10.98 g/m*3 20.7 C 11.3 km/h
510 28-06-2020 18:25:00 20.8 C 11.05 g/m*3 20.8 C 8.1 km/h
511 28-06-2020 18:30:00 20.8 C 11.05 g/m*3 20.8 C 9.7 km/h
512 28-06-2020 18:35:00 20.9 C 11.11 g/m*3 20.9 C 8.1 km/h
513 28-06-2020 18:40:00 21.1 C 11.42 g/m*3 21.1 C 8.1 km/h
514 28-06-2020 18:45:00 21.1 C 11.06 g/m*3 21.1 C 8.1 km/h
515 28-06-2020 18:50:00 21.2 C 11.3 g/m*3 21.2 C 8.1 km/h
516 28-06-2020 18:55:00 21.2 C 11.3 g/m*3 21.2 C 11.3 km/h
517 28-06-2020 19:00:00 21.1 C 11.06 g/m*3 21.1 C 8.1 km/h
518 28-06-2020 19:05:00 20.9 C 11.11 g/m*3 20.9 C 6.4 km/h
519 28-06-2020 19:10:00 20.7 C 10.98 g/m*3 20.7 C 4.8 km/h
520 28-06-2020 19:15:00 20.6 C 11.1 g/m*3 20.6 C 9.7 km/h
521 28-06-2020 19:20:00 20.5 C 11.21 g/m*3 20.5 C 4.8 km/h
522 28-06-2020 19:25:00 20.4 C 10.97 g/m*3 20.4 C 6.4 km/h
523 28-06-2020 19:30:00 20.3 C 11.26 g/m*3 20.3 C 1.6 km/h
524 28-06-2020 19:35:00 20.3 C 11.08 g/m*3 20.3 C 4.8 km/h
525 28-06-2020 19:40:00 20.2 C 11.02 g/m*3 20.2 C 8.1 km/h
Sensor: Nr:Datum:Temp:Abs-Feuchte:Windchill:Wind:
Aussen-T/F 526 28-06-2020 19:45:00 20.2 C 11.19 g/m*3 20.2 C 6.4 km/h
527 28-06-2020 19:50:00 20.2 C 11.37 g/m*3 20.2 C 4.8 km/h
528 28-06-2020 19:55:00 20.1 C 11.13 g/m*3 20.1 C 4.8 km/h
529 28-06-2020 20:00:00 20.1 C 11.13 g/m*3 20.1 C 6.4 km/h
530 28-06-2020 20:05:00 20 C 11.06 g/m*3 20 C 6.4 km/h
531 28-06-2020 20:10:00 19.9 C 11 g/m*3 19.9 C 6.4 km/h
532 28-06-2020 20:15:00 19.9 C 11.34 g/m*3 19.9 C 8.1 km/h
533 28-06-2020 20:20:00 19.9 C 11 g/m*3 19.9 C 6.4 km/h
534 28-06-2020 20:25:00 20 C 11.06 g/m*3 20 C 1.6 km/h
535 28-06-2020 20:30:00 20.3 C 11.26 g/m*3 20.3 C 8.1 km/h
536 28-06-2020 20:35:00 20.4 C 11.5 g/m*3 20.4 C 4.8 km/h
537 28-06-2020 20:40:00 20.4 C 11.14 g/m*3 20.4 C 11.3 km/h
538 28-06-2020 20:45:00 20.4 C 11.14 g/m*3 20.4 C 11.3 km/h
539 28-06-2020 20:50:00 20.4 C 11.14 g/m*3 20.4 C 4.8 km/h
540 28-06-2020 20:55:00 20.4 C 11.32 g/m*3 20.4 C 8.1 km/h
541 28-06-2020 21:00:00 20.3 C 11.26 g/m*3 20.3 C 3.2 km/h
542 28-06-2020 21:05:00 20.2 C 11.19 g/m*3 20.2 C 6.4 km/h
543 28-06-2020 21:10:00 20.1 C 11.13 g/m*3 20.1 C 8.1 km/h
544 28-06-2020 21:15:00 19.8 C 11.1 g/m*3 19.8 C 8.1 km/h
545 28-06-2020 21:20:00 19.7 C 11.21 g/m*3 19.7 C 9.7 km/h
546 28-06-2020 21:25:00 19.6 C 11.31 g/m*3 19.6 C 3.2 km/h
547 28-06-2020 21:30:00 19.4 C 11.35 g/m*3 19.4 C 4.8 km/h
548 28-06-2020 21:35:00 19.2 C 11.21 g/m*3 19.2 C 3.2 km/h
549 28-06-2020 21:40:00 19.1 C 11.31 g/m*3 19.1 C 3.2 km/h
550 28-06-2020 21:45:00 18.8 C 11.11 g/m*3 18.8 C 3.2 km/h
Sensor: Nr:Datum:Temp:Abs-Feuchte:Windchill:Wind:
Aussen-T/F 551 28-06-2020 21:50:00 18.6 C 11.14 g/m*3 18.6 C 3.2 km/h
552 28-06-2020 21:55:00 18.4 C 11.17 g/m*3 18.4 C 4.8 km/h
553 28-06-2020 22:00:00 18.2 C 11.19 g/m*3 18.2 C 3.2 km/h
554 28-06-2020 22:05:00 17.9 C 10.99 g/m*3 17.9 C 4.8 km/h
555 28-06-2020 22:10:00 17.7 C 11.01 g/m*3 17.7 C 0 km/h
556 28-06-2020 22:15:00 17.4 C 10.82 g/m*3 17.4 C 4.8 km/h
557 28-06-2020 22:20:00 17.3 C 10.9 g/m*3 17.3 C 1.6 km/h
558 28-06-2020 22:25:00 17.1 C 10.92 g/m*3 17.1 C 1.6 km/h
559 28-06-2020 22:30:00 16.8 C 10.87 g/m*3 16.8 C 0 km/h
560 28-06-2020 22:35:00 16.7 C 10.8 g/m*3 16.7 C 0 km/h
561 28-06-2020 22:40:00 16.4 C 10.75 g/m*3 16.4 C 6.4 km/h
562 28-06-2020 22:45:00 16.2 C 10.76 g/m*3 16.2 C 4.8 km/h
563 28-06-2020 22:50:00 16.1 C 10.83 g/m*3 16.1 C 6.4 km/h
564 28-06-2020 22:55:00 15.9 C 10.83 g/m*3 15.9 C 4.8 km/h
565 28-06-2020 23:00:00 15.8 C 10.77 g/m*3 15.8 C 4.8 km/h
566 28-06-2020 23:05:00 15.7 C 10.7 g/m*3 15.7 C 6.4 km/h
567 28-06-2020 23:10:00 15.7 C 10.84 g/m*3 15.7 C 3.2 km/h
568 28-06-2020 23:15:00 15.6 C 10.77 g/m*3 15.6 C 3.2 km/h
569 28-06-2020 23:20:00 15.5 C 10.71 g/m*3 15.5 C 3.2 km/h
570 28-06-2020 23:25:00 15.4 C 10.77 g/m*3 15.4 C 4.8 km/h
571 28-06-2020 23:30:00 15.3 C 10.71 g/m*3 15.3 C 4.8 km/h
572 28-06-2020 23:35:00 15.3 C 10.71 g/m*3 15.3 C 4.8 km/h
573 28-06-2020 23:40:00 15.3 C 10.84 g/m*3 15.3 C 3.2 km/h
574 28-06-2020 23:45:00 15.2 C 10.77 g/m*3 15.2 C 3.2 km/h
575 28-06-2020 23:50:00 15.2 C 10.77 g/m*3 15.2 C 4.8 km/h
Sensor: Nr:Datum:Temp:Abs-Feuchte:Windchill:Wind:
Aussen-T/F 576 28-06-2020 23:55:00 15.1 C 10.71 g/m*3 15.1 C 4.8 km/h
577 29-06-2020 00:00:00 15.1 C 10.84 g/m*3 15.1 C 3.2 km/h
578 29-06-2020 00:05:00 15.1 C 10.84 g/m*3 15.1 C 3.2 km/h
579 29-06-2020 00:10:00 15 C 10.77 g/m*3 15 C 3.2 km/h
580 29-06-2020 00:15:00 15 C 10.77 g/m*3 15 C 6.4 km/h
581 29-06-2020 00:20:00 15.1 C 10.84 g/m*3 15.1 C 3.2 km/h
582 29-06-2020 00:25:00 15.1 C 10.84 g/m*3 15.1 C 3.2 km/h
583 29-06-2020 00:30:00 15.1 C 10.84 g/m*3 15.1 C 3.2 km/h
584 29-06-2020 00:35:00 15.1 C 10.84 g/m*3 15.1 C 6.4 km/h
585 29-06-2020 00:40:00 15.1 C 10.84 g/m*3 15.1 C 3.2 km/h
586 29-06-2020 00:45:00 15.1 C 10.84 g/m*3 15.1 C 3.2 km/h
587 29-06-2020 00:50:00 15 C 10.77 g/m*3 15 C 4.8 km/h
588 29-06-2020 00:55:00 15 C 10.9 g/m*3 15 C 3.2 km/h
589 29-06-2020 01:00:00 15 C 10.9 g/m*3 15 C 4.8 km/h
590 29-06-2020 01:05:00 15 C 10.9 g/m*3 15 C 3.2 km/h
591 29-06-2020 01:10:00 15 C 10.9 g/m*3 15 C 3.2 km/h
592 29-06-2020 01:15:00 14.9 C 10.83 g/m*3 14.9 C 0 km/h
593 29-06-2020 01:20:00 14.9 C 10.83 g/m*3 14.9 C 0 km/h
594 29-06-2020 01:25:00 14.8 C 10.77 g/m*3 14.8 C 0 km/h
595 29-06-2020 01:30:00 14.8 C 10.77 g/m*3 14.8 C 0 km/h
596 29-06-2020 01:35:00 14.7 C 10.7 g/m*3 14.7 C 0 km/h
597 29-06-2020 01:40:00 14.5 C 10.7 g/m*3 14.5 C 0 km/h
598 29-06-2020 01:45:00 14.4 C 10.63 g/m*3 14.4 C 0 km/h
599 29-06-2020 01:50:00 14.2 C 10.5 g/m*3 14.2 C 0 km/h
600 29-06-2020 01:55:00 14.2 C 10.62 g/m*3 14.2 C 1.6 km/h
Sensor: Nr:Datum:Temp:Abs-Feuchte:Windchill:Wind:
Aussen-T/F 601 29-06-2020 02:00:00 14.1 C 10.56 g/m*3 14.1 C 1.6 km/h
602 29-06-2020 02:05:00 13.9 C 10.55 g/m*3 13.9 C 4.8 km/h
603 29-06-2020 02:10:00 13.9 C 10.55 g/m*3 13.9 C 3.2 km/h
604 29-06-2020 02:15:00 13.9 C 10.55 g/m*3 13.9 C 1.6 km/h
605 29-06-2020 02:20:00 13.8 C 10.6 g/m*3 13.8 C 1.6 km/h
606 29-06-2020 02:25:00 13.8 C 10.6 g/m*3 13.8 C 4.8 km/h
607 29-06-2020 02:30:00 13.8 C 10.6 g/m*3 13.8 C 1.6 km/h
608 29-06-2020 02:35:00 13.8 C 10.6 g/m*3 13.8 C 0 km/h
609 29-06-2020 02:40:00 13.8 C 10.72 g/m*3 13.8 C 0 km/h
610 29-06-2020 02:45:00 13.8 C 10.72 g/m*3 13.8 C 0 km/h
611 29-06-2020 02:50:00 13.8 C 10.72 g/m*3 13.8 C 0 km/h
612 29-06-2020 02:55:00 13.8 C 10.72 g/m*3 13.8 C 0 km/h
613 29-06-2020 03:00:00 13.8 C 10.72 g/m*3 13.8 C 0 km/h
614 29-06-2020 03:05:00 13.8 C 10.72 g/m*3 13.8 C 0 km/h
615 29-06-2020 03:10:00 13.9 C 10.79 g/m*3 13.9 C 3.2 km/h
616 29-06-2020 03:15:00 13.9 C 10.79 g/m*3 13.9 C 4.8 km/h
617 29-06-2020 03:20:00 13.9 C 10.91 g/m*3 13.9 C 4.8 km/h
618 29-06-2020 03:25:00 14.1 C 11.04 g/m*3 14.1 C 1.6 km/h
619 29-06-2020 03:30:00 14.1 C 11.04 g/m*3 14.1 C 1.6 km/h
620 29-06-2020 03:35:00 14.1 C 10.92 g/m*3 14.1 C 0 km/h
621 29-06-2020 03:40:00 14.1 C 10.92 g/m*3 14.1 C 0 km/h
622 29-06-2020 03:45:00 14.1 C 10.92 g/m*3 14.1 C 0 km/h
623 29-06-2020 03:50:00 13.9 C 10.79 g/m*3 13.9 C 0 km/h
624 29-06-2020 03:55:00 13.9 C 10.79 g/m*3 13.9 C 1.6 km/h
625 29-06-2020 04:00:00 13.8 C 10.72 g/m*3 13.8 C 0 km/h
Sensor: Nr:Datum:Temp:Abs-Feuchte:Windchill:Wind:
Aussen-T/F 626 29-06-2020 04:05:00 13.8 C 10.84 g/m*3 13.8 C 3.2 km/h
627 29-06-2020 04:10:00 13.9 C 10.91 g/m*3 13.9 C 0 km/h
628 29-06-2020 04:15:00 14 C 10.98 g/m*3 14 C 0 km/h
629 29-06-2020 04:20:00 14.1 C 11.04 g/m*3 14.1 C 0 km/h
630 29-06-2020 04:25:00 14.1 C 11.17 g/m*3 14.1 C 0 km/h
631 29-06-2020 04:30:00 14.2 C 11.11 g/m*3 14.2 C 0 km/h
632 29-06-2020 04:35:00 14.2 C 11.11 g/m*3 14.2 C 1.6 km/h
633 29-06-2020 04:40:00 14.2 C 11.11 g/m*3 14.2 C 1.6 km/h
634 29-06-2020 04:45:00 14.3 C 11.18 g/m*3 14.3 C 0 km/h
635 29-06-2020 04:50:00 14.3 C 11.18 g/m*3 14.3 C 0 km/h
636 29-06-2020 04:55:00 14.3 C 11.18 g/m*3 14.3 C 3.2 km/h
637 29-06-2020 05:00:00 14.4 C 11.25 g/m*3 14.4 C 3.2 km/h
638 29-06-2020 05:05:00 14.5 C 11.32 g/m*3 14.5 C 4.8 km/h
639 29-06-2020 05:10:00 14.6 C 11.39 g/m*3 14.6 C 3.2 km/h
640 29-06-2020 05:15:00 14.7 C 11.33 g/m*3 14.7 C 4.8 km/h
641 29-06-2020 05:20:00 14.8 C 11.27 g/m*3 14.8 C 1.6 km/h
642 29-06-2020 05:25:00 14.9 C 11.34 g/m*3 14.9 C 4.8 km/h
643 29-06-2020 05:30:00 15.1 C 11.35 g/m*3 15.1 C 1.6 km/h
644 29-06-2020 05:35:00 15.1 C 11.35 g/m*3 15.1 C 3.2 km/h
645 29-06-2020 05:40:00 15.2 C 11.42 g/m*3 15.2 C 1.6 km/h
646 29-06-2020 05:45:00 15.2 C 11.42 g/m*3 15.2 C 4.8 km/h
647 29-06-2020 05:50:00 15.2 C 11.29 g/m*3 15.2 C 1.6 km/h
648 29-06-2020 05:55:00 15.2 C 11.29 g/m*3 15.2 C 3.2 km/h
649 29-06-2020 06:00:00 15.2 C 11.29 g/m*3 15.2 C 3.2 km/h
650 29-06-2020 06:05:00 15.3 C 11.36 g/m*3 15.3 C 4.8 km/h
Sensor: Nr:Datum:Temp:Abs-Feuchte:Windchill:Wind:
Aussen-T/F 651 29-06-2020 06:10:00 15.3 C 11.36 g/m*3 15.3 C 1.6 km/h
652 29-06-2020 06:15:00 15.2 C 11.29 g/m*3 15.2 C 4.8 km/h
653 29-06-2020 06:20:00 15.3 C 11.36 g/m*3 15.3 C 4.8 km/h
654 29-06-2020 06:25:00 15.3 C 11.36 g/m*3 15.3 C 1.6 km/h
655 29-06-2020 06:30:00 15.4 C 11.43 g/m*3 15.4 C 3.2 km/h
656 29-06-2020 06:35:00 15.4 C 11.43 g/m*3 15.4 C 4.8 km/h
657 29-06-2020 06:40:00 15.5 C 11.5 g/m*3 15.5 C 3.2 km/h
658 29-06-2020 06:45:00 15.6 C 11.44 g/m*3 15.6 C 6.4 km/h
659 29-06-2020 06:50:00 15.7 C 11.51 g/m*3 15.7 C 8.1 km/h
660 29-06-2020 06:55:00 15.8 C 11.58 g/m*3 15.8 C 3.2 km/h
661 29-06-2020 07:00:00 15.8 C 11.58 g/m*3 15.8 C 0 km/h
662 29-06-2020 07:05:00 15.9 C 11.65 g/m*3 15.9 C 0 km/h
663 29-06-2020 07:10:00 16 C 11.72 g/m*3 16 C 1.6 km/h
664 29-06-2020 07:15:00 16.1 C 11.65 g/m*3 16.1 C 3.2 km/h
665 29-06-2020 07:20:00 16.2 C 11.72 g/m*3 16.2 C 1.6 km/h
666 29-06-2020 07:25:00 16.3 C 11.65 g/m*3 16.3 C 0 km/h
667 29-06-2020 07:30:00 16.4 C 11.72 g/m*3 16.4 C 1.6 km/h
668 29-06-2020 07:35:00 16.5 C 11.8 g/m*3 16.5 C 1.6 km/h
669 29-06-2020 07:40:00 16.6 C 11.87 g/m*3 16.6 C 1.6 km/h
670 29-06-2020 07:45:00 16.8 C 11.87 g/m*3 16.8 C 3.2 km/h
671 29-06-2020 07:50:00 16.9 C 11.94 g/m*3 16.9 C 1.6 km/h
672 29-06-2020 07:55:00 17.1 C 11.94 g/m*3 17.1 C 4.8 km/h
673 29-06-2020 08:00:00 17.2 C 12.01 g/m*3 17.2 C 6.4 km/h
674 29-06-2020 08:05:00 17.2 C 11.86 g/m*3 17.2 C 8.1 km/h
675 29-06-2020 08:10:00 17.2 C 11.86 g/m*3 17.2 C 4.8 km/h
Sensor: Nr:Datum:Temp:Abs-Feuchte:Windchill:Wind:
Aussen-T/F 676 29-06-2020 08:15:00 17.2 C 11.86 g/m*3 17.2 C 4.8 km/h
677 29-06-2020 08:20:00 17.2 C 11.86 g/m*3 17.2 C 4.8 km/h
678 29-06-2020 08:25:00 17.1 C 11.94 g/m*3 17.1 C 6.4 km/h
679 29-06-2020 08:30:00 17.1 C 11.94 g/m*3 17.1 C 8.1 km/h
680 29-06-2020 08:35:00 17 C 11.87 g/m*3 17 C 12.9 km/h
681 29-06-2020 08:40:00 16.5 C 9.83 g/m*3 16.5 C 22.5 km/h
682 29-06-2020 08:45:00 15.9 C 9.62 g/m*3 15.9 C 12.9 km/h
683 29-06-2020 08:50:00 14.8 C 9.75 g/m*3 14.8 C 20.9 km/h
684 29-06-2020 08:55:00 13.8 C 9.77 g/m*3 13.8 C 12.9 km/h
685 29-06-2020 09:00:00 13.3 C 9.82 g/m*3 13.3 C 8.1 km/h
686 29-06-2020 09:05:00 13.1 C 10.04 g/m*3 13.1 C 6.4 km/h
687 29-06-2020 09:10:00 12.8 C 9.97 g/m*3 12.8 C 12.9 km/h
688 29-06-2020 09:15:00 12.6 C 9.85 g/m*3 12.6 C 11.3 km/h
689 29-06-2020 09:20:00 12.4 C 9.94 g/m*3 12.4 C 6.4 km/h
690 29-06-2020 09:25:00 12.4 C 10.05 g/m*3 12.4 C 9.7 km/h
691 29-06-2020 09:30:00 12.4 C 10.05 g/m*3 12.4 C 4.8 km/h
692 29-06-2020 09:35:00 12.3 C 9.99 g/m*3 12.3 C 6.4 km/h
693 29-06-2020 09:40:00 12.3 C 9.99 g/m*3 12.3 C 9.7 km/h
694 29-06-2020 09:45:00 12.2 C 10.04 g/m*3 12.2 C 4.8 km/h
695 29-06-2020 09:50:00 12.2 C 10.04 g/m*3 12.2 C 4.8 km/h
696 29-06-2020 09:55:00 12.2 C 10.04 g/m*3 12.2 C 3.2 km/h
697 29-06-2020 10:00:00 12.2 C 10.04 g/m*3 12.2 C 6.4 km/h
698 29-06-2020 10:05:00 12.3 C 10.21 g/m*3 12.3 C 4.8 km/h
699 29-06-2020 10:10:00 12.4 C 10.27 g/m*3 12.4 C 0 km/h
700 29-06-2020 10:15:00 12.6 C 10.4 g/m*3 12.6 C 0 km/h
Sensor: Nr:Datum:Temp:Abs-Feuchte:Windchill:Wind:
Aussen-T/F 701 29-06-2020 10:20:00 12.9 C 10.71 g/m*3 12.9 C 1.6 km/h
702 29-06-2020 10:25:00 13.2 C 10.91 g/m*3 13.2 C 3.2 km/h
703 29-06-2020 10:30:00 13.4 C 10.93 g/m*3 13.4 C 0 km/h
704 29-06-2020 10:35:00 13.7 C 11.25 g/m*3 13.7 C 0 km/h
705 29-06-2020 10:40:00 13.8 C 11.08 g/m*3 13.8 C 1.6 km/h
706 29-06-2020 10:45:00 14 C 11.22 g/m*3 14 C 3.2 km/h
707 29-06-2020 10:50:00 14.2 C 11.23 g/m*3 14.2 C 6.4 km/h
708 29-06-2020 10:55:00 14.4 C 11.25 g/m*3 14.4 C 6.4 km/h
709 29-06-2020 11:00:00 14.6 C 11.26 g/m*3 14.6 C 6.4 km/h
710 29-06-2020 11:05:00 14.8 C 11.4 g/m*3 14.8 C 4.8 km/h
711 29-06-2020 11:10:00 15 C 11.41 g/m*3 15 C 4.8 km/h
712 29-06-2020 11:15:00 15.2 C 11.42 g/m*3 15.2 C 4.8 km/h
713 29-06-2020 11:20:00 15.5 C 11.5 g/m*3 15.5 C 8.1 km/h
714 29-06-2020 11:25:00 15.7 C 11.51 g/m*3 15.7 C 6.4 km/h
715 29-06-2020 11:30:00 15.8 C 11.58 g/m*3 15.8 C 4.8 km/h
716 29-06-2020 11:35:00 16.1 C 11.79 g/m*3 16.1 C 8.1 km/h
717 29-06-2020 11:40:00 16.3 C 11.79 g/m*3 16.3 C 6.4 km/h
718 29-06-2020 11:45:00 16.6 C 11.87 g/m*3 16.6 C 9.7 km/h
719 29-06-2020 11:50:00 16.7 C 11.8 g/m*3 16.7 C 8.1 km/h
720 29-06-2020 11:55:00 16.9 C 11.94 g/m*3 16.9 C 4.8 km/h
721 29-06-2020 12:00:00 17.2 C 12.15 g/m*3 17.2 C 8.1 km/h
722 29-06-2020 12:05:00 17.3 C 11.93 g/m*3 17.3 C 4.8 km/h
723 29-06-2020 12:10:00 17.2 C 11.57 g/m*3 17.2 C 8.1 km/h
724 29-06-2020 12:15:00 17.2 C 11.72 g/m*3 17.2 C 8.1 km/h
725 29-06-2020 12:20:00 17.2 C 11.86 g/m*3 17.2 C 8.1 km/h
Sensor: Nr:Datum:Temp:Abs-Feuchte:Windchill:Wind:
Aussen-T/F 726 29-06-2020 12:25:00 17.4 C 11.86 g/m*3 17.4 C 8.1 km/h
727 29-06-2020 12:30:00 17.7 C 11.62 g/m*3 17.7 C 8.1 km/h
728 29-06-2020 12:35:00 17.8 C 11.84 g/m*3 17.8 C 8.1 km/h
729 29-06-2020 12:40:00 17.9 C 11.91 g/m*3 17.9 C 9.7 km/h
730 29-06-2020 12:45:00 18.1 C 11.9 g/m*3 18.1 C 12.9 km/h
731 29-06-2020 12:50:00 18.3 C 11.88 g/m*3 18.3 C 11.3 km/h
732 29-06-2020 12:55:00 18.6 C 12.1 g/m*3 18.6 C 6.4 km/h
733 29-06-2020 13:00:00 18.9 C 12.15 g/m*3 18.9 C 11.3 km/h
734 29-06-2020 13:05:00 19.2 C 11.87 g/m*3 19.2 C 16.1 km/h
735 29-06-2020 13:10:00 19.4 C 12.01 g/m*3 19.4 C 12.9 km/h
736 29-06-2020 13:15:00 19.7 C 12.06 g/m*3 19.7 C 12.9 km/h
737 29-06-2020 13:20:00 19.9 C 11.68 g/m*3 19.9 C 11.3 km/h
738 29-06-2020 13:25:00 20.1 C 11.99 g/m*3 20.1 C 9.7 km/h
739 29-06-2020 13:30:00 20.2 C 11.89 g/m*3 20.2 C 12.9 km/h
740 29-06-2020 13:35:00 20.3 C 12.14 g/m*3 20.3 C 11.3 km/h
741 29-06-2020 13:40:00 20.4 C 12.03 g/m*3 20.4 C 16.1 km/h
742 29-06-2020 13:45:00 20.5 C 12.28 g/m*3 20.5 C 22.5 km/h
743 29-06-2020 13:50:00 20.7 C 12.06 g/m*3 20.7 C 11.3 km/h
744 29-06-2020 13:55:00 20.8 C 12.13 g/m*3 20.8 C 12.9 km/h
745 29-06-2020 14:00:00 20.9 C 12.02 g/m*3 20.9 C 11.3 km/h
746 29-06-2020 14:05:00 21.1 C 12.16 g/m*3 21.1 C 17.7 km/h
747 29-06-2020 14:10:00 21 C 11.54 g/m*3 21 C 16.1 km/h
748 29-06-2020 14:15:00 20.9 C 11.47 g/m*3 20.9 C 14.5 km/h
749 29-06-2020 14:20:00 21.1 C 11.06 g/m*3 21.1 C 12.9 km/h
750 29-06-2020 14:25:00 21.2 C 11.3 g/m*3 21.2 C 17.7 km/h
Sensor: Nr:Datum:Temp:Abs-Feuchte:Windchill:Wind:
Aussen-T/F 751 29-06-2020 14:30:00 21.4 C 10.87 g/m*3 21.4 C 17.7 km/h
752 29-06-2020 14:35:00 21.7 C 11.83 g/m*3 21.7 C 19.3 km/h
753 29-06-2020 14:40:00 21.8 C 11.9 g/m*3 21.8 C 20.9 km/h
754 29-06-2020 14:45:00 21.8 C 11.51 g/m*3 21.8 C 16.1 km/h
755 29-06-2020 14:50:00 22.1 C 11.71 g/m*3 22.1 C 11.3 km/h
756 29-06-2020 14:55:00 22.3 C 11.26 g/m*3 22.3 C 16.1 km/h
757 29-06-2020 15:00:00 22.2 C 10.8 g/m*3 22.2 C 14.5 km/h
758 29-06-2020 15:05:00 22.2 C 10.21 g/m*3 22.2 C 17.7 km/h
759 29-06-2020 15:10:00 22.4 C 10.33 g/m*3 22.4 C 19.3 km/h
760 29-06-2020 15:15:00 22.8 C 9.55 g/m*3 22.8 C 19.3 km/h
761 29-06-2020 15:20:00 22.8 C 9.75 g/m*3 22.8 C 19.3 km/h
762 29-06-2020 15:25:00 22.6 C 9.64 g/m*3 22.6 C 20.9 km/h
763 29-06-2020 15:30:00 22.3 C 9.48 g/m*3 22.3 C 17.7 km/h
764 29-06-2020 15:35:00 22.7 C 9.9 g/m*3 22.7 C 17.7 km/h
765 29-06-2020 15:40:00 23.1 C 9.72 g/m*3 23.1 C 20.9 km/h
766 29-06-2020 15:45:00 23.4 C 9.46 g/m*3 23.4 C 17.7 km/h
767 29-06-2020 15:50:00 23.4 C 9.25 g/m*3 23.4 C 19.3 km/h
768 29-06-2020 15:55:00 23 C 9.25 g/m*3 23 C 16.1 km/h
769 29-06-2020 16:00:00 23.3 C 9.41 g/m*3 23.3 C 22.5 km/h
770 29-06-2020 16:05:00 23.7 C 10.05 g/m*3 23.7 C 16.1 km/h
771 29-06-2020 16:10:00 23.9 C 9.52 g/m*3 23.9 C 12.9 km/h
772 29-06-2020 16:15:00 23.7 C 9.41 g/m*3 23.7 C 11.3 km/h
773 29-06-2020 16:20:00 23.6 C 9.57 g/m*3 23.6 C 16.1 km/h
774 29-06-2020 16:25:00 23.2 C 9.98 g/m*3 23.2 C 19.3 km/h
775 29-06-2020 16:30:00 23.6 C 9.78 g/m*3 23.6 C 20.9 km/h
Sensor: Nr:Datum:Temp:Abs-Feuchte:Windchill:Wind:
Aussen-T/F 776 29-06-2020 16:35:00 24.1 C 9.41 g/m*3 24.1 C 19.3 km/h
777 29-06-2020 16:40:00 24.2 C 9.46 g/m*3 24.2 C 17.7 km/h
778 29-06-2020 16:45:00 24.2 C 9.46 g/m*3 24.2 C 12.9 km/h
779 29-06-2020 16:50:00 24.4 C 9.79 g/m*3 24.4 C 19.3 km/h
780 29-06-2020 16:55:00 24.2 C 9.46 g/m*3 24.2 C 16.1 km/h
781 29-06-2020 17:00:00 23.8 C 10.33 g/m*3 23.8 C 11.3 km/h
782 29-06-2020 17:05:00 24 C 10.23 g/m*3 24 C 12.9 km/h
783 29-06-2020 17:10:00 23.8 C 10.11 g/m*3 23.8 C 11.3 km/h
784 29-06-2020 17:15:00 23.7 C 9.63 g/m*3 23.7 C 12.9 km/h
785 29-06-2020 17:20:00 23.9 C 9.74 g/m*3 23.9 C 17.7 km/h
786 29-06-2020 17:25:00 24.2 C 9.9 g/m*3 24.2 C 19.3 km/h
787 29-06-2020 17:30:00 24.3 C 9.74 g/m*3 24.3 C 19.3 km/h
788 29-06-2020 17:35:00 24.5 C 9.62 g/m*3 24.5 C 17.7 km/h
789 29-06-2020 17:40:00 24.3 C 9.52 g/m*3 24.3 C 17.7 km/h
790 29-06-2020 17:45:00 23.8 C 9.46 g/m*3 23.8 C 14.5 km/h
791 29-06-2020 17:50:00 23.8 C 9.25 g/m*3 23.8 C 12.9 km/h
792 29-06-2020 17:55:00 24.2 C 9.46 g/m*3 24.2 C 11.3 km/h
793 29-06-2020 18:00:00 23.7 C 8.98 g/m*3 23.7 C 8.1 km/h
794 29-06-2020 18:05:00 23.3 C 9.62 g/m*3 23.3 C 8.1 km/h
795 29-06-2020 18:10:00 23.7 C 9.41 g/m*3 23.7 C 17.7 km/h
796 29-06-2020 18:15:00 23.6 C 9.15 g/m*3 23.6 C 16.1 km/h
797 29-06-2020 18:20:00 23.2 C 9.15 g/m*3 23.2 C 14.5 km/h
798 29-06-2020 18:25:00 23.2 C 9.36 g/m*3 23.2 C 14.5 km/h
799 29-06-2020 18:30:00 22.9 C 9.4 g/m*3 22.9 C 11.3 km/h
800 29-06-2020 18:35:00 23.1 C 9.1 g/m*3 23.1 C 12.9 km/h
Sensor: Nr:Datum:Temp:Abs-Feuchte:Windchill:Wind:
Aussen-T/F 801 29-06-2020 18:40:00 23.4 C 9.46 g/m*3 23.4 C 16.1 km/h
802 29-06-2020 18:45:00 23.8 C 8.82 g/m*3 23.8 C 14.5 km/h
803 29-06-2020 18:50:00 23.6 C 9.15 g/m*3 23.6 C 14.5 km/h
804 29-06-2020 18:55:00 22.9 C 9.2 g/m*3 22.9 C 14.5 km/h
805 29-06-2020 19:00:00 22.7 C 9.29 g/m*3 22.7 C 12.9 km/h
806 29-06-2020 19:05:00 23 C 9.45 g/m*3 23 C 16.1 km/h
807 29-06-2020 19:10:00 22.8 C 9.35 g/m*3 22.8 C 6.4 km/h
808 29-06-2020 19:15:00 22.7 C 9.09 g/m*3 22.7 C 9.7 km/h
809 29-06-2020 19:20:00 22.6 C 9.44 g/m*3 22.6 C 11.3 km/h
810 29-06-2020 19:25:00 22.4 C 8.74 g/m*3 22.4 C 17.7 km/h
811 29-06-2020 19:30:00 22.1 C 8.78 g/m*3 22.1 C 11.3 km/h
812 29-06-2020 19:35:00 21.7 C 8.58 g/m*3 21.7 C 17.7 km/h
813 29-06-2020 19:40:00 21.4 C 8.62 g/m*3 21.4 C 8.1 km/h
814 29-06-2020 19:45:00 21.3 C 9.13 g/m*3 21.3 C 14.5 km/h
815 29-06-2020 19:50:00 21.5 C 8.86 g/m*3 21.5 C 16.1 km/h
816 29-06-2020 19:55:00 21.6 C 8.53 g/m*3 21.6 C 16.1 km/h
817 29-06-2020 20:00:00 21.3 C 8.39 g/m*3 21.3 C 9.7 km/h
818 29-06-2020 20:05:00 20.9 C 8.74 g/m*3 20.9 C 8.1 km/h
819 29-06-2020 20:10:00 20.7 C 8.82 g/m*3 20.7 C 9.7 km/h
820 29-06-2020 20:15:00 20.4 C 9.02 g/m*3 20.4 C 6.4 km/h
821 29-06-2020 20:20:00 20.3 C 8.79 g/m*3 20.3 C 4.8 km/h
822 29-06-2020 20:25:00 20.4 C 8.67 g/m*3 20.4 C 9.7 km/h
823 29-06-2020 20:30:00 20.7 C 8.64 g/m*3 20.7 C 12.9 km/h
824 29-06-2020 20:35:00 20.8 C 8.51 g/m*3 20.8 C 11.3 km/h
825 29-06-2020 20:40:00 20.9 C 8.74 g/m*3 20.9 C 9.7 km/h
Sensor: Nr:Datum:Temp:Abs-Feuchte:Windchill:Wind:
Aussen-T/F 826 29-06-2020 20:45:00 21 C 8.61 g/m*3 21 C 14.5 km/h
827 29-06-2020 20:50:00 20.9 C 9.29 g/m*3 20.9 C 8.1 km/h
828 29-06-2020 20:55:00 20.8 C 9.23 g/m*3 20.8 C 6.4 km/h
829 29-06-2020 21:00:00 20.4 C 8.85 g/m*3 20.4 C 11.3 km/h
830 29-06-2020 21:05:00 20.3 C 8.97 g/m*3 20.3 C 8.1 km/h
831 29-06-2020 21:10:00 20.2 C 9.27 g/m*3 20.2 C 4.8 km/h
832 29-06-2020 21:15:00 19.9 C 9.11 g/m*3 19.9 C 6.4 km/h
833 29-06-2020 21:20:00 19.7 C 8.83 g/m*3 19.7 C 4.8 km/h
834 29-06-2020 21:25:00 19.6 C 9.12 g/m*3 19.6 C 3.2 km/h
835 29-06-2020 21:30:00 19.3 C 9.12 g/m*3 19.3 C 3.2 km/h
836 29-06-2020 21:35:00 19.1 C 9.18 g/m*3 19.1 C 8.1 km/h
837 29-06-2020 21:40:00 18.9 C 8.75 g/m*3 18.9 C 6.4 km/h
838 29-06-2020 21:45:00 18.8 C 9.34 g/m*3 18.8 C 4.8 km/h
839 29-06-2020 21:50:00 18.6 C 9.23 g/m*3 18.6 C 3.2 km/h
840 29-06-2020 21:55:00 18.4 C 9.12 g/m*3 18.4 C 4.8 km/h
841 29-06-2020 22:00:00 18.3 C 9.38 g/m*3 18.3 C 4.8 km/h
842 29-06-2020 22:05:00 18.1 C 8.96 g/m*3 18.1 C 4.8 km/h
843 29-06-2020 22:10:00 17.9 C 9.62 g/m*3 17.9 C 4.8 km/h
844 29-06-2020 22:15:00 17.7 C 9.51 g/m*3 17.7 C 3.2 km/h
845 29-06-2020 22:20:00 17.5 C 9.24 g/m*3 17.5 C 3.2 km/h
846 29-06-2020 22:25:00 17.3 C 9.28 g/m*3 17.3 C 1.6 km/h
847 29-06-2020 22:30:00 17.2 C 9.23 g/m*3 17.2 C 3.2 km/h
848 29-06-2020 22:35:00 16.9 C 9.06 g/m*3 16.9 C 4.8 km/h
849 29-06-2020 22:40:00 16.8 C 8.86 g/m*3 16.8 C 6.4 km/h
850 29-06-2020 22:45:00 16.7 C 8.95 g/m*3 16.7 C 3.2 km/h
Sensor: Nr:Datum:Temp:Abs-Feuchte:Windchill:Wind:
Aussen-T/F 851 29-06-2020 22:50:00 16.6 C 8.76 g/m*3 16.6 C 8.1 km/h
852 29-06-2020 22:55:00 16.4 C 8.79 g/m*3 16.4 C 4.8 km/h
853 29-06-2020 23:00:00 16.3 C 8.74 g/m*3 16.3 C 4.8 km/h
854 29-06-2020 23:05:00 16.3 C 9.02 g/m*3 16.3 C 3.2 km/h
855 29-06-2020 23:10:00 16.1 C 8.91 g/m*3 16.1 C 4.8 km/h
856 29-06-2020 23:15:00 16 C 8.86 g/m*3 16 C 6.4 km/h
857 29-06-2020 23:20:00 15.8 C 8.88 g/m*3 15.8 C 4.8 km/h
858 29-06-2020 23:25:00 15.7 C 9.1 g/m*3 15.7 C 4.8 km/h
859 29-06-2020 23:30:00 15.6 C 9.04 g/m*3 15.6 C 6.4 km/h
860 29-06-2020 23:35:00 15.4 C 9.07 g/m*3 15.4 C 4.8 km/h
861 29-06-2020 23:40:00 15.2 C 9.09 g/m*3 15.2 C 4.8 km/h
862 29-06-2020 23:45:00 15.1 C 9.16 g/m*3 15.1 C 4.8 km/h
863 29-06-2020 23:50:00 14.9 C 9.05 g/m*3 14.9 C 4.8 km/h
864 29-06-2020 23:55:00 14.7 C 9.07 g/m*3 14.7 C 4.8 km/h
865 30-06-2020 00:00:00 14.4 C 9.02 g/m*3 14.4 C 4.8 km/h
866 30-06-2020 00:05:00 14.3 C 8.97 g/m*3 14.3 C 4.8 km/h
867 30-06-2020 00:10:00 14.1 C 8.98 g/m*3 14.1 C 4.8 km/h
868 30-06-2020 00:15:00 13.9 C 8.99 g/m*3 13.9 C 4.8 km/h
869 30-06-2020 00:20:00 13.8 C 8.94 g/m*3 13.8 C 3.2 km/h
870 30-06-2020 00:25:00 13.7 C 9 g/m*3 13.7 C 3.2 km/h
871 30-06-2020 00:30:00 13.6 C 9.06 g/m*3 13.6 C 0 km/h
872 30-06-2020 00:35:00 13.4 C 8.95 g/m*3 13.4 C 0 km/h
873 30-06-2020 00:40:00 13.4 C 9.07 g/m*3 13.4 C 0 km/h
874 30-06-2020 00:45:00 13.4 C 9.18 g/m*3 13.4 C 0 km/h
875 30-06-2020 00:50:00 13.4 C 9.18 g/m*3 13.4 C 0 km/h
Sensor: Nr:Datum:Temp:Abs-Feuchte:Windchill:Wind:
Aussen-T/F 876 30-06-2020 00:55:00 13.4 C 9.18 g/m*3 13.4 C 0 km/h
877 30-06-2020 01:00:00 13.4 C 9.18 g/m*3 13.4 C 0 km/h
878 30-06-2020 01:05:00 13.4 C 9.18 g/m*3 13.4 C 0 km/h
879 30-06-2020 01:10:00 13.4 C 9.18 g/m*3 13.4 C 0 km/h
880 30-06-2020 01:15:00 13.3 C 9.13 g/m*3 13.3 C 0 km/h
881 30-06-2020 01:20:00 13.2 C 8.96 g/m*3 13.2 C 0 km/h
882 30-06-2020 01:25:00 13.2 C 9.07 g/m*3 13.2 C 0 km/h
883 30-06-2020 01:30:00 13.1 C 8.9 g/m*3 13.1 C 0 km/h
884 30-06-2020 01:35:00 12.9 C 8.9 g/m*3 12.9 C 0 km/h
885 30-06-2020 01:40:00 12.8 C 8.74 g/m*3 12.8 C 0 km/h
886 30-06-2020 01:45:00 12.7 C 8.79 g/m*3 12.7 C 0 km/h
887 30-06-2020 01:50:00 12.6 C 8.85 g/m*3 12.6 C 0 km/h
888 30-06-2020 01:55:00 12.5 C 8.8 g/m*3 12.5 C 0 km/h
889 30-06-2020 02:00:00 12.4 C 8.74 g/m*3 12.4 C 0 km/h
890 30-06-2020 02:05:00 12.3 C 8.69 g/m*3 12.3 C 0 km/h
891 30-06-2020 02:10:00 12.2 C 8.74 g/m*3 12.2 C 0 km/h
892 30-06-2020 02:15:00 12.2 C 8.85 g/m*3 12.2 C 0 km/h
893 30-06-2020 02:20:00 12.1 C 8.79 g/m*3 12.1 C 0 km/h
894 30-06-2020 02:25:00 12.1 C 8.9 g/m*3 12.1 C 0 km/h
895 30-06-2020 02:30:00 12 C 8.85 g/m*3 12 C 0 km/h
896 30-06-2020 02:35:00 11.9 C 8.9 g/m*3 11.9 C 0 km/h
897 30-06-2020 02:40:00 11.8 C 8.84 g/m*3 11.8 C 0 km/h
898 30-06-2020 02:45:00 11.7 C 8.79 g/m*3 11.7 C 0 km/h
899 30-06-2020 02:50:00 11.6 C 8.73 g/m*3 11.6 C 0 km/h
900 30-06-2020 02:55:00 11.4 C 8.72 g/m*3 11.4 C 0 km/h
Sensor: Nr:Datum:Temp:Abs-Feuchte:Windchill:Wind:
Aussen-T/F 901 30-06-2020 03:00:00 11.3 C 8.67 g/m*3 11.3 C 0 km/h
902 30-06-2020 03:05:00 11.3 C 8.67 g/m*3 11.3 C 0 km/h
903 30-06-2020 03:10:00 11.2 C 8.72 g/m*3 11.2 C 0 km/h
904 30-06-2020 03:15:00 11.2 C 8.72 g/m*3 11.2 C 0 km/h
905 30-06-2020 03:20:00 11.1 C 8.66 g/m*3 11.1 C 0 km/h
906 30-06-2020 03:25:00 11.1 C 8.76 g/m*3 11.1 C 0 km/h
907 30-06-2020 03:30:00 11 C 8.71 g/m*3 11 C 0 km/h
908 30-06-2020 03:35:00 11 C 8.71 g/m*3 11 C 0 km/h
909 30-06-2020 03:40:00 11 C 8.81 g/m*3 11 C 0 km/h
910 30-06-2020 03:45:00 10.9 C 8.75 g/m*3 10.9 C 0 km/h
911 30-06-2020 03:50:00 10.9 C 8.75 g/m*3 10.9 C 0 km/h
912 30-06-2020 03:55:00 10.9 C 8.75 g/m*3 10.9 C 0 km/h
913 30-06-2020 04:00:00 10.8 C 8.7 g/m*3 10.8 C 0 km/h
914 30-06-2020 04:05:00 10.8 C 8.7 g/m*3 10.8 C 0 km/h
915 30-06-2020 04:10:00 10.8 C 8.7 g/m*3 10.8 C 0 km/h
916 30-06-2020 04:15:00 10.8 C 8.7 g/m*3 10.8 C 0 km/h
917 30-06-2020 04:20:00 10.7 C 8.64 g/m*3 10.7 C 0 km/h
918 30-06-2020 04:25:00 10.7 C 8.74 g/m*3 10.7 C 0 km/h
919 30-06-2020 04:30:00 10.6 C 8.69 g/m*3 10.6 C 0 km/h
920 30-06-2020 04:35:00 10.6 C 8.69 g/m*3 10.6 C 0 km/h
921 30-06-2020 04:40:00 10.5 C 8.63 g/m*3 10.5 C 0 km/h
922 30-06-2020 04:45:00 10.4 C 8.58 g/m*3 10.4 C 0 km/h
923 30-06-2020 04:50:00 10.4 C 8.58 g/m*3 10.4 C 0 km/h
924 30-06-2020 04:55:00 10.3 C 8.52 g/m*3 10.3 C 0 km/h
925 30-06-2020 05:00:00 10.3 C 8.52 g/m*3 10.3 C 0 km/h
Sensor: Nr:Datum:Temp:Abs-Feuchte:Windchill:Wind:
Aussen-T/F 926 30-06-2020 05:05:00 10.3 C 8.62 g/m*3 10.3 C 0 km/h
927 30-06-2020 05:10:00 10.2 C 8.56 g/m*3 10.2 C 0 km/h
928 30-06-2020 05:15:00 10.1 C 8.51 g/m*3 10.1 C 0 km/h
929 30-06-2020 05:20:00 10.1 C 8.51 g/m*3 10.1 C 0 km/h
930 30-06-2020 05:25:00 10 C 8.46 g/m*3 10 C 0 km/h
931 30-06-2020 05:30:00 9.9 C 8.4 g/m*3 9.9 C 0 km/h
932 30-06-2020 05:35:00 9.9 C 8.5 g/m*3 9.9 C 0 km/h
933 30-06-2020 05:40:00 9.8 C 8.35 g/m*3 9.8 C 0 km/h
934 30-06-2020 05:45:00 9.8 C 8.44 g/m*3 9.8 C 0 km/h
935 30-06-2020 05:50:00 9.8 C 8.44 g/m*3 9.8 C 0 km/h
936 30-06-2020 05:55:00 9.7 C 8.39 g/m*3 9.7 C 0 km/h
937 30-06-2020 06:00:00 9.7 C 8.39 g/m*3 9.7 C 0 km/h
938 30-06-2020 06:05:00 9.7 C 8.39 g/m*3 9.7 C 0 km/h
939 30-06-2020 06:10:00 9.7 C 8.39 g/m*3 9.7 C 0 km/h
940 30-06-2020 06:15:00 9.7 C 8.48 g/m*3 9.7 C 0 km/h
941 30-06-2020 06:20:00 9.7 C 8.48 g/m*3 9.7 C 0 km/h
942 30-06-2020 06:25:00 9.8 C 8.54 g/m*3 9.8 C 0 km/h
943 30-06-2020 06:30:00 9.8 C 8.54 g/m*3 9.8 C 0 km/h
944 30-06-2020 06:35:00 9.8 C 8.54 g/m*3 9.8 C 0 km/h
945 30-06-2020 06:40:00 9.9 C 8.68 g/m*3 9.9 C 0 km/h
946 30-06-2020 06:45:00 10 C 8.74 g/m*3 10 C 0 km/h
947 30-06-2020 06:50:00 10.1 C 8.79 g/m*3 10.1 C 0 km/h
948 30-06-2020 06:55:00 10.1 C 8.79 g/m*3 10.1 C 0 km/h
949 30-06-2020 07:00:00 10.2 C 8.85 g/m*3 10.2 C 0 km/h
950 30-06-2020 07:05:00 10.3 C 8.91 g/m*3 10.3 C 0 km/h
Sensor: Nr:Datum:Temp:Abs-Feuchte:Windchill:Wind:
Aussen-T/F 951 30-06-2020 07:10:00 10.4 C 8.96 g/m*3 10.4 C 0 km/h
952 30-06-2020 07:15:00 10.6 C 9.08 g/m*3 10.6 C 1.6 km/h
953 30-06-2020 07:20:00 10.7 C 9.04 g/m*3 10.7 C 0 km/h
954 30-06-2020 07:25:00 10.9 C 9.15 g/m*3 10.9 C 0 km/h
955 30-06-2020 07:30:00 11.1 C 9.27 g/m*3 11.1 C 0 km/h
956 30-06-2020 07:35:00 11.3 C 9.28 g/m*3 11.3 C 0 km/h
957 30-06-2020 07:40:00 11.6 C 9.46 g/m*3 11.6 C 0 km/h
958 30-06-2020 07:45:00 11.8 C 9.47 g/m*3 11.8 C 0 km/h
959 30-06-2020 07:50:00 11.9 C 9.53 g/m*3 11.9 C 0 km/h
960 30-06-2020 07:55:00 12.2 C 9.6 g/m*3 12.2 C 0 km/h
961 30-06-2020 08:00:00 12.4 C 9.72 g/m*3 12.4 C 0 km/h
962 30-06-2020 08:05:00 12.7 C 9.91 g/m*3 12.7 C 0 km/h
963 30-06-2020 08:10:00 12.9 C 9.92 g/m*3 12.9 C 0 km/h
964 30-06-2020 08:15:00 13.1 C 9.93 g/m*3 13.1 C 0 km/h
965 30-06-2020 08:20:00 13.4 C 10.11 g/m*3 13.4 C 0 km/h
966 30-06-2020 08:25:00 13.6 C 10 g/m*3 13.6 C 1.6 km/h
967 30-06-2020 08:30:00 13.8 C 10.01 g/m*3 13.8 C 0 km/h
968 30-06-2020 08:35:00 14.1 C 10.07 g/m*3 14.1 C 0 km/h
969 30-06-2020 08:40:00 14.3 C 10.07 g/m*3 14.3 C 0 km/h
970 30-06-2020 08:45:00 14.4 C 9.89 g/m*3 14.4 C 0 km/h
971 30-06-2020 08:50:00 14.6 C 9.89 g/m*3 14.6 C 0 km/h
972 30-06-2020 08:55:00 14.8 C 10.01 g/m*3 14.8 C 0 km/h
973 30-06-2020 09:00:00 14.9 C 9.94 g/m*3 14.9 C 0 km/h
974 30-06-2020 09:05:00 15.1 C 10.19 g/m*3 15.1 C 0 km/h
975 30-06-2020 09:10:00 15.3 C 10.06 g/m*3 15.3 C 0 km/h
Sensor: Nr:Datum:Temp:Abs-Feuchte:Windchill:Wind:
Aussen-T/F 976 30-06-2020 09:15:00 15.5 C 10.05 g/m*3 15.5 C 0 km/h
977 30-06-2020 09:20:00 15.7 C 9.9 g/m*3 15.7 C 0 km/h
978 30-06-2020 09:25:00 15.9 C 10.02 g/m*3 15.9 C 0 km/h
979 30-06-2020 09:30:00 16.1 C 10.01 g/m*3 16.1 C 0 km/h
980 30-06-2020 09:35:00 16.3 C 10.27 g/m*3 16.3 C 0 km/h
981 30-06-2020 09:40:00 16.5 C 10.25 g/m*3 16.5 C 0 km/h
982 30-06-2020 09:45:00 16.7 C 10.23 g/m*3 16.7 C 0 km/h
983 30-06-2020 09:50:00 16.8 C 10.01 g/m*3 16.8 C 0 km/h
984 30-06-2020 09:55:00 17 C 9.98 g/m*3 17 C 0 km/h
985 30-06-2020 10:00:00 17.1 C 9.75 g/m*3 17.1 C 9.7 km/h
986 30-06-2020 10:05:00 17.2 C 9.81 g/m*3 17.2 C 9.7 km/h
987 30-06-2020 10:10:00 17.2 C 9.96 g/m*3 17.2 C 6.4 km/h
988 30-06-2020 10:15:00 17.3 C 10.16 g/m*3 17.3 C 4.8 km/h
989 30-06-2020 10:20:00 17.3 C 9.87 g/m*3 17.3 C 8.1 km/h
990 30-06-2020 10:25:00 17.3 C 9.87 g/m*3 17.3 C 8.1 km/h
991 30-06-2020 10:30:00 17.3 C 10.02 g/m*3 17.3 C 6.4 km/h
992 30-06-2020 10:35:00 17.4 C 10.08 g/m*3 17.4 C 4.8 km/h
993 30-06-2020 10:40:00 17.5 C 9.99 g/m*3 17.5 C 6.4 km/h
994 30-06-2020 10:45:00 17.4 C 10.08 g/m*3 17.4 C 11.3 km/h
995 30-06-2020 10:50:00 17.4 C 9.93 g/m*3 17.4 C 9.7 km/h
996 30-06-2020 10:55:00 17.5 C 9.84 g/m*3 17.5 C 4.8 km/h
997 30-06-2020 11:00:00 17.5 C 9.84 g/m*3 17.5 C 9.7 km/h
998 30-06-2020 11:05:00 17.5 C 9.69 g/m*3 17.5 C 4.8 km/h
999 30-06-2020 11:10:00 17.5 C 9.99 g/m*3 17.5 C 6.4 km/h
1000 30-06-2020 11:15:00 17.6 C 9.9 g/m*3 17.6 C 6.4 km/h
Sensor: Nr:Datum:Temp:Abs-Feuchte:Windchill:Wind:
Aussen-T/F 1001 30-06-2020 11:20:00 17.7 C 9.96 g/m*3 17.7 C 14.5 km/h
1002 30-06-2020 11:25:00 17.8 C 10.02 g/m*3 17.8 C 8.1 km/h
1003 30-06-2020 11:30:00 17.9 C 9.92 g/m*3 17.9 C 9.7 km/h
1004 30-06-2020 11:35:00 17.9 C 10.08 g/m*3 17.9 C 4.8 km/h
1005 30-06-2020 11:40:00 18 C 10.14 g/m*3 18 C 4.8 km/h
1006 30-06-2020 11:45:00 18 C 9.98 g/m*3 18 C 11.3 km/h
1007 30-06-2020 11:50:00 18.1 C 10.2 g/m*3 18.1 C 4.8 km/h
1008 30-06-2020 11:55:00 18.1 C 10.04 g/m*3 18.1 C 8.1 km/h
1009 30-06-2020 12:00:00 18.1 C 10.2 g/m*3 18.1 C 9.7 km/h
1010 30-06-2020 12:05:00 18.1 C 10.2 g/m*3 18.1 C 8.1 km/h
1011 30-06-2020 12:10:00 18.1 C 10.2 g/m*3 18.1 C 9.7 km/h
1012 30-06-2020 12:15:00 18.1 C 10.2 g/m*3 18.1 C 6.4 km/h
1013 30-06-2020 12:20:00 18.1 C 10.2 g/m*3 18.1 C 12.9 km/h
1014 30-06-2020 12:25:00 18.1 C 10.04 g/m*3 18.1 C 12.9 km/h
1015 30-06-2020 12:30:00 18.1 C 10.04 g/m*3 18.1 C 11.3 km/h
1016 30-06-2020 12:35:00 18.1 C 10.2 g/m*3 18.1 C 4.8 km/h
1017 30-06-2020 12:40:00 18.2 C 10.41 g/m*3 18.2 C 6.4 km/h
1018 30-06-2020 12:45:00 18.4 C 10.22 g/m*3 18.4 C 9.7 km/h
1019 30-06-2020 12:50:00 18.7 C 10.25 g/m*3 18.7 C 16.1 km/h
1020 30-06-2020 12:55:00 18.8 C 10.31 g/m*3 18.8 C 12.9 km/h
1021 30-06-2020 13:00:00 18.9 C 10.21 g/m*3 18.9 C 14.5 km/h
1022 30-06-2020 13:05:00 19.1 C 10.33 g/m*3 19.1 C 8.1 km/h
1023 30-06-2020 13:10:00 19.3 C 10.45 g/m*3 19.3 C 11.3 km/h
1024 30-06-2020 13:15:00 19.4 C 10.51 g/m*3 19.4 C 9.7 km/h
1025 30-06-2020 13:20:00 19.5 C 10.41 g/m*3 19.5 C 11.3 km/h
Sensor: Nr:Datum:Temp:Abs-Feuchte:Windchill:Wind:
Aussen-T/F 1026 30-06-2020 13:25:00 19.6 C 10.47 g/m*3 19.6 C 11.3 km/h
1027 30-06-2020 13:30:00 19.8 C 10.59 g/m*3 19.8 C 16.1 km/h
1028 30-06-2020 13:35:00 19.9 C 10.48 g/m*3 19.9 C 12.9 km/h
1029 30-06-2020 13:40:00 20.1 C 10.6 g/m*3 20.1 C 9.7 km/h
1030 30-06-2020 13:45:00 20.2 C 10.32 g/m*3 20.2 C 17.7 km/h
1031 30-06-2020 13:50:00 20.2 C 10.49 g/m*3 20.2 C 11.3 km/h
1032 30-06-2020 13:55:00 20.3 C 10.55 g/m*3 20.3 C 14.5 km/h
1033 30-06-2020 14:00:00 20.4 C 10.26 g/m*3 20.4 C 20.9 km/h
1034 30-06-2020 14:05:00 20.5 C 10.5 g/m*3 20.5 C 12.9 km/h
1035 30-06-2020 14:10:00 20.5 C 10.5 g/m*3 20.5 C 14.5 km/h
1036 30-06-2020 14:15:00 20.5 C 10.32 g/m*3 20.5 C 19.3 km/h
1037 30-06-2020 14:20:00 20.8 C 10.5 g/m*3 20.8 C 14.5 km/h
1038 30-06-2020 14:25:00 21.1 C 10.32 g/m*3 21.1 C 16.1 km/h
1039 30-06-2020 14:30:00 21.2 C 10.75 g/m*3 21.2 C 14.5 km/h
1040 30-06-2020 14:35:00 21.2 C 10.56 g/m*3 21.2 C 12.9 km/h
1041 30-06-2020 14:40:00 21.1 C 10.5 g/m*3 21.1 C 11.3 km/h
1042 30-06-2020 14:45:00 21 C 10.08 g/m*3 21 C 20.9 km/h
1043 30-06-2020 14:50:00 21.2 C 10.56 g/m*3 21.2 C 17.7 km/h
1044 30-06-2020 14:55:00 21.3 C 10.25 g/m*3 21.3 C 20.9 km/h
1045 30-06-2020 15:00:00 21.2 C 10.19 g/m*3 21.2 C 19.3 km/h
1046 30-06-2020 15:05:00 21.3 C 10.81 g/m*3 21.3 C 19.3 km/h
1047 30-06-2020 15:10:00 21.4 C 10.5 g/m*3 21.4 C 24.1 km/h
1048 30-06-2020 15:15:00 21.3 C 10.44 g/m*3 21.3 C 17.7 km/h
1049 30-06-2020 15:20:00 21.4 C 10.5 g/m*3 21.4 C 12.9 km/h
1050 30-06-2020 15:25:00 21.8 C 10.74 g/m*3 21.8 C 17.7 km/h
Sensor: Nr:Datum:Temp:Abs-Feuchte:Windchill:Wind:
Aussen-T/F 1051 30-06-2020 15:30:00 22 C 10.48 g/m*3 22 C 14.5 km/h
1052 30-06-2020 15:35:00 21.8 C 10.55 g/m*3 21.8 C 11.3 km/h
1053 30-06-2020 15:40:00 21.7 C 10.68 g/m*3 21.7 C 12.9 km/h
1054 30-06-2020 15:45:00 21.7 C 10.49 g/m*3 21.7 C 17.7 km/h
1055 30-06-2020 15:50:00 21.4 C 10.5 g/m*3 21.4 C 17.7 km/h
1056 30-06-2020 15:55:00 21.3 C 10.62 g/m*3 21.3 C 9.7 km/h
1057 30-06-2020 16:00:00 21.6 C 10.81 g/m*3 21.6 C 11.3 km/h
1058 30-06-2020 16:05:00 21.8 C 10.94 g/m*3 21.8 C 11.3 km/h
1059 30-06-2020 16:10:00 21.7 C 10.87 g/m*3 21.7 C 12.9 km/h
1060 30-06-2020 16:15:00 21.9 C 11.19 g/m*3 21.9 C 14.5 km/h
1061 30-06-2020 16:20:00 22.2 C 10.8 g/m*3 22.2 C 24.1 km/h
1062 30-06-2020 16:25:00 22.4 C 11.12 g/m*3 22.4 C 14.5 km/h
1063 30-06-2020 16:30:00 22.8 C 10.77 g/m*3 22.8 C 19.3 km/h
1064 30-06-2020 16:35:00 22.6 C 10.65 g/m*3 22.6 C 17.7 km/h
1065 30-06-2020 16:40:00 22.4 C 10.92 g/m*3 22.4 C 14.5 km/h
1066 30-06-2020 16:45:00 22.2 C 10.6 g/m*3 22.2 C 17.7 km/h
1067 30-06-2020 16:50:00 22.1 C 10.93 g/m*3 22.1 C 16.1 km/h
1068 30-06-2020 16:55:00 22.2 C 10.99 g/m*3 22.2 C 9.7 km/h
1069 30-06-2020 17:00:00 22.5 C 10.79 g/m*3 22.5 C 19.3 km/h
1070 30-06-2020 17:05:00 22.5 C 11.19 g/m*3 22.5 C 14.5 km/h
1071 30-06-2020 17:10:00 22.8 C 10.57 g/m*3 22.8 C 16.1 km/h
1072 30-06-2020 17:15:00 23 C 10.69 g/m*3 23 C 14.5 km/h
1073 30-06-2020 17:20:00 23.4 C 10.72 g/m*3 23.4 C 17.7 km/h
1074 30-06-2020 17:25:00 23.3 C 10.87 g/m*3 23.3 C 16.1 km/h
1075 30-06-2020 17:30:00 23.4 C 10.72 g/m*3 23.4 C 17.7 km/h
Sensor: Nr:Datum:Temp:Abs-Feuchte:Windchill:Wind:
Aussen-T/F 1076 30-06-2020 17:35:00 23.3 C 10.87 g/m*3 23.3 C 11.3 km/h
1077 30-06-2020 17:40:00 23.6 C 11.06 g/m*3 23.6 C 16.1 km/h
1078 30-06-2020 17:45:00 23.9 C 10.82 g/m*3 23.9 C 17.7 km/h
1079 30-06-2020 17:50:00 23.7 C 10.69 g/m*3 23.7 C 12.9 km/h
1080 30-06-2020 17:55:00 23.1 C 10.75 g/m*3 23.1 C 6.4 km/h
1081 30-06-2020 18:00:00 22.7 C 10.71 g/m*3 22.7 C 11.3 km/h
1082 30-06-2020 18:05:00 22.9 C 10.83 g/m*3 22.9 C 8.1 km/h
1083 30-06-2020 18:10:00 23.4 C 10.93 g/m*3 23.4 C 22.5 km/h
1084 30-06-2020 18:15:00 23.6 C 10.85 g/m*3 23.6 C 17.7 km/h
1085 30-06-2020 18:20:00 23.5 C 10.79 g/m*3 23.5 C 17.7 km/h
1086 30-06-2020 18:25:00 23 C 10.69 g/m*3 23 C 12.9 km/h
1087 30-06-2020 18:30:00 22.7 C 10.71 g/m*3 22.7 C 16.1 km/h
1088 30-06-2020 18:35:00 22.8 C 10.57 g/m*3 22.8 C 16.1 km/h
1089 30-06-2020 18:40:00 22.5 C 10.59 g/m*3 22.5 C 12.9 km/h
1090 30-06-2020 18:45:00 22.1 C 10.74 g/m*3 22.1 C 19.3 km/h
1091 30-06-2020 18:50:00 21.9 C 10.81 g/m*3 21.9 C 8.1 km/h
1092 30-06-2020 18:55:00 21.7 C 11.06 g/m*3 21.7 C 20.9 km/h
1093 30-06-2020 19:00:00 21.7 C 10.87 g/m*3 21.7 C 9.7 km/h
1094 30-06-2020 19:05:00 21.8 C 10.94 g/m*3 21.8 C 16.1 km/h
1095 30-06-2020 19:10:00 21.6 C 10.81 g/m*3 21.6 C 14.5 km/h
1096 30-06-2020 19:15:00 21.4 C 11.06 g/m*3 21.4 C 8.1 km/h
1097 30-06-2020 19:20:00 21.3 C 11 g/m*3 21.3 C 9.7 km/h
1098 30-06-2020 19:25:00 21.3 C 11 g/m*3 21.3 C 9.7 km/h
1099 30-06-2020 19:30:00 21.2 C 10.93 g/m*3 21.2 C 12.9 km/h
1100 30-06-2020 19:35:00 21.2 C 11.12 g/m*3 21.2 C 16.1 km/h
Sensor: Nr:Datum:Temp:Abs-Feuchte:Windchill:Wind:
Aussen-T/F 1101 30-06-2020 19:40:00 21.1 C 11.06 g/m*3 21.1 C 16.1 km/h
1102 30-06-2020 19:45:00 21.1 C 11.06 g/m*3 21.1 C 9.7 km/h
1103 30-06-2020 19:50:00 21.1 C 11.06 g/m*3 21.1 C 14.5 km/h
1104 30-06-2020 19:55:00 21.1 C 11.24 g/m*3 21.1 C 12.9 km/h
1105 30-06-2020 20:00:00 21.3 C 11.37 g/m*3 21.3 C 19.3 km/h
1106 30-06-2020 20:05:00 21.4 C 11.44 g/m*3 21.4 C 6.4 km/h
1107 30-06-2020 20:10:00 21.4 C 11.62 g/m*3 21.4 C 11.3 km/h
1108 30-06-2020 20:15:00 21.2 C 11.3 g/m*3 21.2 C 11.3 km/h
1109 30-06-2020 20:20:00 21 C 11.36 g/m*3 21 C 8.1 km/h
1110 30-06-2020 20:25:00 20.9 C 11.29 g/m*3 20.9 C 8.1 km/h
1111 30-06-2020 20:30:00 20.8 C 11.23 g/m*3 20.8 C 14.5 km/h
1112 30-06-2020 20:35:00 20.8 C 11.23 g/m*3 20.8 C 12.9 km/h
1113 30-06-2020 20:40:00 20.7 C 11.34 g/m*3 20.7 C 16.1 km/h
1114 30-06-2020 20:45:00 20.7 C 11.34 g/m*3 20.7 C 9.7 km/h
1115 30-06-2020 20:50:00 20.6 C 11.28 g/m*3 20.6 C 12.9 km/h
1116 30-06-2020 20:55:00 20.5 C 11.21 g/m*3 20.5 C 9.7 km/h
1117 30-06-2020 21:00:00 20.4 C 11.32 g/m*3 20.4 C 14.5 km/h
1118 30-06-2020 21:05:00 20.4 C 11.5 g/m*3 20.4 C 9.7 km/h
1119 30-06-2020 21:10:00 20.4 C 11.68 g/m*3 20.4 C 3.2 km/h
1120 30-06-2020 21:15:00 20.3 C 11.61 g/m*3 20.3 C 8.1 km/h
1121 30-06-2020 21:20:00 20.1 C 11.3 g/m*3 20.1 C 16.1 km/h
1122 30-06-2020 21:25:00 20.1 C 11.65 g/m*3 20.1 C 8.1 km/h
1123 30-06-2020 21:30:00 20 C 11.41 g/m*3 20 C 6.4 km/h
1124 30-06-2020 21:35:00 19.9 C 11.68 g/m*3 19.9 C 3.2 km/h
1125 30-06-2020 21:40:00 19.9 C 11.68 g/m*3 19.9 C 3.2 km/h
Sensor: Nr:Datum:Temp:Abs-Feuchte:Windchill:Wind:
Aussen-T/F 1126 30-06-2020 21:45:00 19.8 C 11.61 g/m*3 19.8 C 1.6 km/h
1127 30-06-2020 21:50:00 19.7 C 11.55 g/m*3 19.7 C 0 km/h
1128 30-06-2020 21:55:00 19.7 C 11.72 g/m*3 19.7 C 0 km/h
1129 30-06-2020 22:00:00 19.6 C 11.82 g/m*3 19.6 C 8.1 km/h
1130 30-06-2020 22:05:00 19.4 C 11.68 g/m*3 19.4 C 6.4 km/h
1131 30-06-2020 22:10:00 19.3 C 11.78 g/m*3 19.3 C 3.2 km/h
1132 30-06-2020 22:15:00 19.2 C 11.71 g/m*3 19.2 C 0 km/h
1133 30-06-2020 22:20:00 19.1 C 11.64 g/m*3 19.1 C 6.4 km/h
1134 30-06-2020 22:25:00 19 C 11.73 g/m*3 19 C 4.8 km/h
1135 30-06-2020 22:30:00 18.9 C 11.83 g/m*3 18.9 C 3.2 km/h
1136 30-06-2020 22:35:00 18.8 C 11.76 g/m*3 18.8 C 4.8 km/h
1137 30-06-2020 22:40:00 18.8 C 11.76 g/m*3 18.8 C 3.2 km/h
1138 30-06-2020 22:45:00 18.8 C 11.6 g/m*3 18.8 C 3.2 km/h
1139 30-06-2020 22:50:00 18.8 C 11.76 g/m*3 18.8 C 8.1 km/h
1140 30-06-2020 22:55:00 18.8 C 11.6 g/m*3 18.8 C 8.1 km/h
1141 30-06-2020 23:00:00 18.9 C 11.66 g/m*3 18.9 C 8.1 km/h
1142 30-06-2020 23:05:00 19 C 11.73 g/m*3 19 C 1.6 km/h
1143 30-06-2020 23:10:00 19.1 C 11.64 g/m*3 19.1 C 8.1 km/h
1144 30-06-2020 23:15:00 19.2 C 11.71 g/m*3 19.2 C 3.2 km/h
1145 30-06-2020 23:20:00 19.2 C 11.87 g/m*3 19.2 C 4.8 km/h
1146 30-06-2020 23:25:00 19.2 C 11.71 g/m*3 19.2 C 11.3 km/h
1147 30-06-2020 23:30:00 19.3 C 11.78 g/m*3 19.3 C 8.1 km/h
1148 30-06-2020 23:35:00 19.3 C 11.78 g/m*3 19.3 C 6.4 km/h
1149 30-06-2020 23:40:00 19.3 C 11.78 g/m*3 19.3 C 4.8 km/h
1150 30-06-2020 23:45:00 19.3 C 11.78 g/m*3 19.3 C 12.9 km/h
Sensor: Nr:Datum:Temp:Abs-Feuchte:Windchill:Wind:
Aussen-T/F 1151 30-06-2020 23:50:00 19.3 C 11.78 g/m*3 19.3 C 6.4 km/h
1152 30-06-2020 23:55:00 19.4 C 11.68 g/m*3 19.4 C 11.3 km/h
1153 01-07-2020 00:00:00 19.4 C 11.68 g/m*3 19.4 C 11.3 km/h
1154 01-07-2020 00:05:00 19.4 C 11.68 g/m*3 19.4 C 14.5 km/h
1155 01-07-2020 00:10:00 19.4 C 11.68 g/m*3 19.4 C 11.3 km/h
1156 01-07-2020 00:15:00 19.4 C 11.68 g/m*3 19.4 C 12.9 km/h
1157 01-07-2020 00:20:00 19.4 C 11.68 g/m*3 19.4 C 8.1 km/h
1158 01-07-2020 00:25:00 19.5 C 11.75 g/m*3 19.5 C 6.4 km/h
1159 01-07-2020 00:30:00 19.4 C 11.68 g/m*3 19.4 C 11.3 km/h
1160 01-07-2020 00:35:00 19.4 C 11.85 g/m*3 19.4 C 8.1 km/h
1161 01-07-2020 00:40:00 19.4 C 11.85 g/m*3 19.4 C 6.4 km/h
1162 01-07-2020 00:45:00 19.4 C 11.85 g/m*3 19.4 C 11.3 km/h
1163 01-07-2020 00:50:00 19.4 C 11.85 g/m*3 19.4 C 8.1 km/h
1164 01-07-2020 00:55:00 19.4 C 11.85 g/m*3 19.4 C 4.8 km/h
1165 01-07-2020 01:00:00 19.4 C 11.85 g/m*3 19.4 C 4.8 km/h
1166 01-07-2020 01:05:00 19.3 C 11.94 g/m*3 19.3 C 6.4 km/h
1167 01-07-2020 01:10:00 19.3 C 11.94 g/m*3 19.3 C 9.7 km/h
1168 01-07-2020 01:15:00 19.3 C 11.94 g/m*3 19.3 C 4.8 km/h
1169 01-07-2020 01:20:00 19.2 C 11.87 g/m*3 19.2 C 1.6 km/h
1170 01-07-2020 01:25:00 19.1 C 11.8 g/m*3 19.1 C 3.2 km/h
1171 01-07-2020 01:30:00 19.1 C 11.97 g/m*3 19.1 C 8.1 km/h
1172 01-07-2020 01:35:00 18.9 C 11.83 g/m*3 18.9 C 6.4 km/h
1173 01-07-2020 01:40:00 18.8 C 11.76 g/m*3 18.8 C 6.4 km/h
1174 01-07-2020 01:45:00 18.7 C 11.85 g/m*3 18.7 C 3.2 km/h
1175 01-07-2020 01:50:00 18.7 C 11.85 g/m*3 18.7 C 8.1 km/h
Sensor: Nr:Datum:Temp:Abs-Feuchte:Windchill:Wind:
Aussen-T/F 1176 01-07-2020 01:55:00 18.5 C 11.71 g/m*3 18.5 C 6.4 km/h
1177 01-07-2020 02:00:00 18.4 C 11.8 g/m*3 18.4 C 8.1 km/h
1178 01-07-2020 02:05:00 18.3 C 11.73 g/m*3 18.3 C 4.8 km/h
1179 01-07-2020 02:10:00 18.2 C 11.81 g/m*3 18.2 C 1.6 km/h
1180 01-07-2020 02:15:00 18.2 C 11.81 g/m*3 18.2 C 6.4 km/h
1181 01-07-2020 02:20:00 18.1 C 11.74 g/m*3 18.1 C 4.8 km/h
1182 01-07-2020 02:25:00 18 C 11.83 g/m*3 18 C 4.8 km/h
1183 01-07-2020 02:30:00 18 C 11.67 g/m*3 18 C 11.3 km/h
1184 01-07-2020 02:35:00 18.1 C 11.74 g/m*3 18.1 C 6.4 km/h
1185 01-07-2020 02:40:00 18.1 C 11.74 g/m*3 18.1 C 14.5 km/h
1186 01-07-2020 02:45:00 18.2 C 11.81 g/m*3 18.2 C 6.4 km/h
1187 01-07-2020 02:50:00 18.2 C 11.81 g/m*3 18.2 C 9.7 km/h
1188 01-07-2020 02:55:00 18.3 C 11.88 g/m*3 18.3 C 6.4 km/h
1189 01-07-2020 03:00:00 18.2 C 11.81 g/m*3 18.2 C 3.2 km/h
1190 01-07-2020 03:05:00 18.2 C 11.81 g/m*3 18.2 C 4.8 km/h
1191 01-07-2020 03:10:00 18.2 C 11.97 g/m*3 18.2 C 3.2 km/h
1192 01-07-2020 03:15:00 18.1 C 11.9 g/m*3 18.1 C 1.6 km/h
1193 01-07-2020 03:20:00 17.9 C 11.76 g/m*3 17.9 C 4.8 km/h
1194 01-07-2020 03:25:00 17.8 C 11.84 g/m*3 17.8 C 3.2 km/h
1195 01-07-2020 03:30:00 17.7 C 11.77 g/m*3 17.7 C 3.2 km/h
1196 01-07-2020 03:35:00 17.6 C 11.85 g/m*3 17.6 C 1.6 km/h
1197 01-07-2020 03:40:00 17.5 C 11.93 g/m*3 17.5 C 4.8 km/h
1198 01-07-2020 03:45:00 17.4 C 11.86 g/m*3 17.4 C 4.8 km/h
1199 01-07-2020 03:50:00 17.4 C 11.86 g/m*3 17.4 C 1.6 km/h
1200 01-07-2020 03:55:00 17.4 C 11.86 g/m*3 17.4 C 3.2 km/h
Sensor: Nr:Datum:Temp:Abs-Feuchte:Windchill:Wind:
Aussen-T/F 1201 01-07-2020 04:00:00 17.4 C 11.86 g/m*3 17.4 C 0 km/h
1202 01-07-2020 04:05:00 17.4 C 11.86 g/m*3 17.4 C 0 km/h
1203 01-07-2020 04:10:00 17.3 C 11.79 g/m*3 17.3 C 4.8 km/h
1204 01-07-2020 04:15:00 17.3 C 11.79 g/m*3 17.3 C 4.8 km/h
1205 01-07-2020 04:20:00 17.3 C 11.79 g/m*3 17.3 C 6.4 km/h
1206 01-07-2020 04:25:00 17.2 C 11.86 g/m*3 17.2 C 4.8 km/h
1207 01-07-2020 04:30:00 17.2 C 11.72 g/m*3 17.2 C 1.6 km/h
1208 01-07-2020 04:35:00 17.1 C 11.79 g/m*3 17.1 C 0 km/h
1209 01-07-2020 04:40:00 17.1 C 11.79 g/m*3 17.1 C 1.6 km/h
1210 01-07-2020 04:45:00 16.9 C 11.79 g/m*3 16.9 C 0 km/h
1211 01-07-2020 04:50:00 16.9 C 11.79 g/m*3 16.9 C 0 km/h
1212 01-07-2020 04:55:00 16.8 C 11.72 g/m*3 16.8 C 0 km/h
1213 01-07-2020 05:00:00 16.8 C 11.72 g/m*3 16.8 C 0 km/h
1214 01-07-2020 05:05:00 16.8 C 11.72 g/m*3 16.8 C 4.8 km/h
1215 01-07-2020 05:10:00 16.8 C 11.72 g/m*3 16.8 C 0 km/h
1216 01-07-2020 05:15:00 16.8 C 11.87 g/m*3 16.8 C 0 km/h
1217 01-07-2020 05:20:00 16.8 C 11.87 g/m*3 16.8 C 0 km/h
1218 01-07-2020 05:25:00 16.7 C 11.8 g/m*3 16.7 C 0 km/h
1219 01-07-2020 05:30:00 16.6 C 11.72 g/m*3 16.6 C 0 km/h
1220 01-07-2020 05:35:00 16.5 C 11.65 g/m*3 16.5 C 0 km/h
1221 01-07-2020 05:40:00 16.3 C 11.65 g/m*3 16.3 C 0 km/h
1222 01-07-2020 05:45:00 16.2 C 11.58 g/m*3 16.2 C 1.6 km/h
1223 01-07-2020 05:50:00 16.1 C 11.65 g/m*3 16.1 C 0 km/h
1224 01-07-2020 05:55:00 16.1 C 11.65 g/m*3 16.1 C 0 km/h
1225 01-07-2020 06:00:00 16 C 11.72 g/m*3 16 C 0 km/h
Sensor: Nr:Datum:Temp:Abs-Feuchte:Windchill:Wind:
Aussen-T/F 1226 01-07-2020 06:05:00 15.9 C 11.65 g/m*3 15.9 C 1.6 km/h
1227 01-07-2020 06:10:00 15.8 C 11.58 g/m*3 15.8 C 1.6 km/h
1228 01-07-2020 06:15:00 15.8 C 11.71 g/m*3 15.8 C 3.2 km/h
1229 01-07-2020 06:20:00 15.7 C 11.64 g/m*3 15.7 C 0 km/h
1230 01-07-2020 06:25:00 15.7 C 11.64 g/m*3 15.7 C 0 km/h
1231 01-07-2020 06:30:00 15.7 C 11.64 g/m*3 15.7 C 1.6 km/h
1232 01-07-2020 06:35:00 15.6 C 11.7 g/m*3 15.6 C 0 km/h
1233 01-07-2020 06:40:00 15.6 C 11.7 g/m*3 15.6 C 1.6 km/h
1234 01-07-2020 06:45:00 15.6 C 11.7 g/m*3 15.6 C 3.2 km/h
1235 01-07-2020 06:50:00 15.6 C 11.7 g/m*3 15.6 C 3.2 km/h
1236 01-07-2020 06:55:00 15.6 C 11.84 g/m*3 15.6 C 0 km/h
1237 01-07-2020 07:00:00 15.7 C 11.91 g/m*3 15.7 C 0 km/h
1238 01-07-2020 07:05:00 15.7 C 12.04 g/m*3 15.7 C 0 km/h
1239 01-07-2020 07:10:00 15.9 C 12.19 g/m*3 15.9 C 1.6 km/h
1240 01-07-2020 07:15:00 16.1 C 12.2 g/m*3 16.1 C 3.2 km/h
1241 01-07-2020 07:20:00 16.3 C 12.35 g/m*3 16.3 C 1.6 km/h
1242 01-07-2020 07:25:00 16.5 C 12.5 g/m*3 16.5 C 0 km/h
1243 01-07-2020 07:30:00 16.7 C 12.65 g/m*3 16.7 C 4.8 km/h
1244 01-07-2020 07:35:00 17.1 C 12.66 g/m*3 17.1 C 4.8 km/h
1245 01-07-2020 07:40:00 17.2 C 12.59 g/m*3 17.2 C 4.8 km/h
1246 01-07-2020 07:45:00 17.4 C 12.6 g/m*3 17.4 C 4.8 km/h
1247 01-07-2020 07:50:00 17.6 C 12.6 g/m*3 17.6 C 11.3 km/h
1248 01-07-2020 07:55:00 17.9 C 12.52 g/m*3 17.9 C 14.5 km/h
1249 01-07-2020 08:00:00 18.2 C 12.59 g/m*3 18.2 C 9.7 km/h
1250 01-07-2020 08:05:00 18.4 C 12.58 g/m*3 18.4 C 11.3 km/h
Sensor: Nr:Datum:Temp:Abs-Feuchte:Windchill:Wind:
Aussen-T/F 1251 01-07-2020 08:10:00 18.6 C 12.73 g/m*3 18.6 C 4.8 km/h
1252 01-07-2020 08:15:00 18.7 C 12.65 g/m*3 18.7 C 8.1 km/h
1253 01-07-2020 08:20:00 18.8 C 12.72 g/m*3 18.8 C 11.3 km/h
1254 01-07-2020 08:25:00 19 C 12.87 g/m*3 19 C 11.3 km/h
1255 01-07-2020 08:30:00 19.2 C 12.86 g/m*3 19.2 C 11.3 km/h
1256 01-07-2020 08:35:00 19.3 C 12.94 g/m*3 19.3 C 11.3 km/h
1257 01-07-2020 08:40:00 19.5 C 12.92 g/m*3 19.5 C 9.7 km/h
1258 01-07-2020 08:45:00 19.7 C 13.08 g/m*3 19.7 C 11.3 km/h
1259 01-07-2020 08:50:00 19.8 C 13.15 g/m*3 19.8 C 9.7 km/h
1260 01-07-2020 08:55:00 19.9 C 13.06 g/m*3 19.9 C 8.1 km/h
1261 01-07-2020 09:00:00 20.1 C 13.21 g/m*3 20.1 C 8.1 km/h
1262 01-07-2020 09:05:00 20.3 C 13.19 g/m*3 20.3 C 9.7 km/h
1263 01-07-2020 09:10:00 20.3 C 13.19 g/m*3 20.3 C 6.4 km/h
1264 01-07-2020 09:15:00 20.6 C 13.6 g/m*3 20.6 C 6.4 km/h
1265 01-07-2020 09:20:00 20.8 C 13.58 g/m*3 20.8 C 6.4 km/h
1266 01-07-2020 09:25:00 21.1 C 13.63 g/m*3 21.1 C 6.4 km/h
1267 01-07-2020 09:30:00 21.2 C 13.71 g/m*3 21.2 C 14.5 km/h
1268 01-07-2020 09:35:00 21.2 C 13.53 g/m*3 21.2 C 14.5 km/h
1269 01-07-2020 09:40:00 21.2 C 13.71 g/m*3 21.2 C 9.7 km/h
1270 01-07-2020 09:45:00 21.3 C 13.79 g/m*3 21.3 C 8.1 km/h
1271 01-07-2020 09:50:00 21.3 C 13.61 g/m*3 21.3 C 11.3 km/h
1272 01-07-2020 09:55:00 21.3 C 13.61 g/m*3 21.3 C 9.7 km/h
1273 01-07-2020 10:00:00 21.4 C 13.87 g/m*3 21.4 C 8.1 km/h
1274 01-07-2020 10:05:00 21.4 C 13.69 g/m*3 21.4 C 12.9 km/h
1275 01-07-2020 10:10:00 21.5 C 13.95 g/m*3 21.5 C 8.1 km/h
Sensor: Nr:Datum:Temp:Abs-Feuchte:Windchill:Wind:
Aussen-T/F 1276 01-07-2020 10:15:00 21.6 C 14.03 g/m*3 21.6 C 9.7 km/h
1277 01-07-2020 10:20:00 21.7 C 13.73 g/m*3 21.7 C 17.7 km/h
1278 01-07-2020 10:25:00 21.6 C 13.85 g/m*3 21.6 C 17.7 km/h
1279 01-07-2020 10:30:00 21.6 C 13.85 g/m*3 21.6 C 12.9 km/h
1280 01-07-2020 10:35:00 21.6 C 13.85 g/m*3 21.6 C 8.1 km/h
1281 01-07-2020 10:40:00 21.6 C 13.85 g/m*3 21.6 C 11.3 km/h
1282 01-07-2020 10:45:00 21.6 C 13.85 g/m*3 21.6 C 22.5 km/h
1283 01-07-2020 10:50:00 21.5 C 13.77 g/m*3 21.5 C 22.5 km/h
1284 01-07-2020 10:55:00 21.5 C 13.77 g/m*3 21.5 C 9.7 km/h
1285 01-07-2020 11:00:00 21.6 C 13.85 g/m*3 21.6 C 11.3 km/h
1286 01-07-2020 11:05:00 21.7 C 13.93 g/m*3 21.7 C 9.7 km/h
1287 01-07-2020 11:10:00 21.7 C 13.54 g/m*3 21.7 C 14.5 km/h
1288 01-07-2020 11:15:00 21.7 C 13.54 g/m*3 21.7 C 11.3 km/h
1289 01-07-2020 11:20:00 21.8 C 13.62 g/m*3 21.8 C 12.9 km/h
1290 01-07-2020 11:25:00 21.9 C 13.89 g/m*3 21.9 C 11.3 km/h
1291 01-07-2020 11:30:00 22.1 C 14.05 g/m*3 22.1 C 12.9 km/h
1292 01-07-2020 11:35:00 22.3 C 14.22 g/m*3 22.3 C 8.1 km/h
1293 01-07-2020 11:40:00 22.4 C 13.9 g/m*3 22.4 C 12.9 km/h
1294 01-07-2020 11:45:00 22.6 C 14.06 g/m*3 22.6 C 11.3 km/h
1295 01-07-2020 11:50:00 22.7 C 13.94 g/m*3 22.7 C 12.9 km/h
1296 01-07-2020 11:55:00 23 C 14.18 g/m*3 23 C 14.5 km/h
1297 01-07-2020 12:00:00 23.2 C 13.93 g/m*3 23.2 C 12.9 km/h
1298 01-07-2020 12:05:00 23.3 C 14.01 g/m*3 23.3 C 11.3 km/h
1299 01-07-2020 12:10:00 23.4 C 13.88 g/m*3 23.4 C 14.5 km/h
1300 01-07-2020 12:15:00 23.6 C 13.82 g/m*3 23.6 C 22.5 km/h
Sensor: Nr:Datum:Temp:Abs-Feuchte:Windchill:Wind:
Aussen-T/F 1301 01-07-2020 12:20:00 23.4 C 13.88 g/m*3 23.4 C 14.5 km/h
1302 01-07-2020 12:25:00 23.6 C 13.82 g/m*3 23.6 C 20.9 km/h
1303 01-07-2020 12:30:00 23.6 C 14.04 g/m*3 23.6 C 19.3 km/h
1304 01-07-2020 12:35:00 23.7 C 13.9 g/m*3 23.7 C 20.9 km/h
1305 01-07-2020 12:40:00 23.7 C 13.69 g/m*3 23.7 C 20.9 km/h
1306 01-07-2020 12:45:00 23.8 C 13.98 g/m*3 23.8 C 14.5 km/h
1307 01-07-2020 12:50:00 23.8 C 13.77 g/m*3 23.8 C 17.7 km/h
1308 01-07-2020 12:55:00 23.7 C 13.69 g/m*3 23.7 C 22.5 km/h
1309 01-07-2020 13:00:00 23.9 C 14.06 g/m*3 23.9 C 17.7 km/h
1310 01-07-2020 13:05:00 24.1 C 14.22 g/m*3 24.1 C 19.3 km/h
1311 01-07-2020 13:10:00 24.2 C 14.08 g/m*3 24.2 C 22.5 km/h
1312 01-07-2020 13:15:00 24.2 C 13.86 g/m*3 24.2 C 19.3 km/h
1313 01-07-2020 13:20:00 24.2 C 14.08 g/m*3 24.2 C 19.3 km/h
1314 01-07-2020 13:25:00 24.1 C 14 g/m*3 24.1 C 20.9 km/h
1315 01-07-2020 13:30:00 24.1 C 14 g/m*3 24.1 C 19.3 km/h
1316 01-07-2020 13:35:00 24 C 13.92 g/m*3 24 C 20.9 km/h
1317 01-07-2020 13:40:00 24.1 C 14 g/m*3 24.1 C 14.5 km/h
1318 01-07-2020 13:45:00 24.1 C 14 g/m*3 24.1 C 16.1 km/h
1319 01-07-2020 13:50:00 24 C 13.92 g/m*3 24 C 24.1 km/h
1320 01-07-2020 13:55:00 24.1 C 14 g/m*3 24.1 C 14.5 km/h
1321 01-07-2020 14:00:00 24.3 C 13.94 g/m*3 24.3 C 12.9 km/h
1322 01-07-2020 14:05:00 24.6 C 13.95 g/m*3 24.6 C 17.7 km/h
1323 01-07-2020 14:10:00 24.6 C 13.95 g/m*3 24.6 C 20.9 km/h
1324 01-07-2020 14:15:00 24.3 C 13.72 g/m*3 24.3 C 20.9 km/h
1325 01-07-2020 14:20:00 24.4 C 14.02 g/m*3 24.4 C 17.7 km/h
Sensor: Nr:Datum:Temp:Abs-Feuchte:Windchill:Wind:
Aussen-T/F 1326 01-07-2020 14:25:00 24.7 C 13.81 g/m*3 24.7 C 17.7 km/h
1327 01-07-2020 14:30:00 25.1 C 14.12 g/m*3 25.1 C 22.5 km/h
1328 01-07-2020 14:35:00 25.2 C 14.2 g/m*3 25.2 C 24.1 km/h
1329 01-07-2020 14:40:00 25.1 C 14.12 g/m*3 25.1 C 19.3 km/h
1330 01-07-2020 14:45:00 24.7 C 14.26 g/m*3 24.7 C 16.1 km/h
1331 01-07-2020 14:50:00 24.8 C 14.34 g/m*3 24.8 C 20.9 km/h
1332 01-07-2020 14:55:00 24.6 C 14.4 g/m*3 24.6 C 27.4 km/h
1333 01-07-2020 15:00:00 24.5 C 13.88 g/m*3 24.5 C 22.5 km/h
1334 01-07-2020 15:05:00 24.4 C 14.02 g/m*3 24.4 C 25.7 km/h
1335 01-07-2020 15:10:00 24.4 C 14.02 g/m*3 24.4 C 14.5 km/h
1336 01-07-2020 15:15:00 24.4 C 14.02 g/m*3 24.4 C 22.5 km/h
1337 01-07-2020 15:20:00 24.4 C 14.02 g/m*3 24.4 C 17.7 km/h
1338 01-07-2020 15:25:00 24.6 C 14.18 g/m*3 24.6 C 14.5 km/h
1339 01-07-2020 15:30:00 24.8 C 14.34 g/m*3 24.8 C 20.9 km/h
1340 01-07-2020 15:35:00 24.8 C 14.11 g/m*3 24.8 C 19.3 km/h
1341 01-07-2020 15:40:00 24.9 C 14.42 g/m*3 24.9 C 14.5 km/h
1342 01-07-2020 15:45:00 25.1 C 14.35 g/m*3 25.1 C 16.1 km/h
1343 01-07-2020 15:50:00 25.2 C 14.43 g/m*3 25.2 C 17.7 km/h
1344 01-07-2020 15:55:00 25.2 C 13.97 g/m*3 25.2 C 14.5 km/h
1345 01-07-2020 16:00:00 25.2 C 14.2 g/m*3 25.2 C 22.5 km/h
1346 01-07-2020 16:05:00 25.3 C 14.51 g/m*3 25.3 C 16.1 km/h
1347 01-07-2020 16:10:00 25.3 C 14.51 g/m*3 25.3 C 14.5 km/h
1348 01-07-2020 16:15:00 25.2 C 13.97 g/m*3 25.2 C 20.9 km/h
1349 01-07-2020 16:20:00 24.9 C 13.96 g/m*3 24.9 C 19.3 km/h
1350 01-07-2020 16:25:00 24.7 C 14.03 g/m*3 24.7 C 19.3 km/h
Sensor: Nr:Datum:Temp:Abs-Feuchte:Windchill:Wind:
Aussen-T/F 1351 01-07-2020 16:30:00 24.8 C 14.34 g/m*3 24.8 C 17.7 km/h
1352 01-07-2020 16:35:00 24.9 C 14.42 g/m*3 24.9 C 12.9 km/h
1353 01-07-2020 16:40:00 25.3 C 14.51 g/m*3 25.3 C 11.3 km/h
1354 01-07-2020 16:45:00 25.6 C 14.76 g/m*3 25.6 C 11.3 km/h
1355 01-07-2020 16:50:00 25.7 C 14.36 g/m*3 25.7 C 12.9 km/h
1356 01-07-2020 16:55:00 25.6 C 14.28 g/m*3 25.6 C 16.1 km/h
1357 01-07-2020 17:00:00 25.4 C 14.13 g/m*3 25.4 C 20.9 km/h
1358 01-07-2020 17:05:00 25.3 C 14.28 g/m*3 25.3 C 11.3 km/h
1359 01-07-2020 17:10:00 25.3 C 14.28 g/m*3 25.3 C 14.5 km/h
1360 01-07-2020 17:15:00 25.4 C 14.6 g/m*3 25.4 C 19.3 km/h
1361 01-07-2020 17:20:00 25.6 C 14.05 g/m*3 25.6 C 24.1 km/h
1362 01-07-2020 17:25:00 25.3 C 14.28 g/m*3 25.3 C 16.1 km/h
1363 01-07-2020 17:30:00 25.5 C 14.2 g/m*3 25.5 C 14.5 km/h
1364 01-07-2020 17:35:00 25.9 C 14.28 g/m*3 25.9 C 16.1 km/h
1365 01-07-2020 17:40:00 26.4 C 14.44 g/m*3 26.4 C 12.9 km/h
1366 01-07-2020 17:45:00 26.2 C 13.79 g/m*3 26.2 C 19.3 km/h
1367 01-07-2020 17:50:00 25.7 C 13.65 g/m*3 25.7 C 17.7 km/h
1368 01-07-2020 17:55:00 25.4 C 13.89 g/m*3 25.4 C 20.9 km/h
1369 01-07-2020 18:00:00 25.4 C 14.13 g/m*3 25.4 C 12.9 km/h
1370 01-07-2020 18:05:00 25.3 C 13.81 g/m*3 25.3 C 22.5 km/h
1371 01-07-2020 18:10:00 25.3 C 13.58 g/m*3 25.3 C 14.5 km/h
1372 01-07-2020 18:15:00 25.2 C 13.74 g/m*3 25.2 C 16.1 km/h
1373 01-07-2020 18:20:00 25.1 C 13.66 g/m*3 25.1 C 17.7 km/h
1374 01-07-2020 18:25:00 25.2 C 13.97 g/m*3 25.2 C 16.1 km/h
1375 01-07-2020 18:30:00 25.1 C 13.66 g/m*3 25.1 C 12.9 km/h
Sensor: Nr:Datum:Temp:Abs-Feuchte:Windchill:Wind:
Aussen-T/F 1376 01-07-2020 18:35:00 24.9 C 13.73 g/m*3 24.9 C 14.5 km/h
1377 01-07-2020 18:40:00 24.8 C 13.88 g/m*3 24.8 C 9.7 km/h
1378 01-07-2020 18:45:00 24.8 C 13.88 g/m*3 24.8 C 9.7 km/h
1379 01-07-2020 18:50:00 24.8 C 13.88 g/m*3 24.8 C 9.7 km/h
1380 01-07-2020 18:55:00 24.8 C 13.88 g/m*3 24.8 C 14.5 km/h
1381 01-07-2020 19:00:00 24.7 C 13.81 g/m*3 24.7 C 19.3 km/h
1382 01-07-2020 19:05:00 24.6 C 13.73 g/m*3 24.6 C 16.1 km/h
1383 01-07-2020 19:10:00 24.5 C 13.88 g/m*3 24.5 C 9.7 km/h
1384 01-07-2020 19:15:00 24.5 C 14.1 g/m*3 24.5 C 12.9 km/h
1385 01-07-2020 19:20:00 24.6 C 13.95 g/m*3 24.6 C 9.7 km/h
1386 01-07-2020 19:25:00 24.7 C 14.03 g/m*3 24.7 C 12.9 km/h
1387 01-07-2020 19:30:00 24.8 C 13.88 g/m*3 24.8 C 16.1 km/h
1388 01-07-2020 19:35:00 24.6 C 13.95 g/m*3 24.6 C 14.5 km/h
1389 01-07-2020 19:40:00 24.4 C 14.02 g/m*3 24.4 C 9.7 km/h
1390 01-07-2020 19:45:00 24.3 C 13.72 g/m*3 24.3 C 19.3 km/h
1391 01-07-2020 19:50:00 24.3 C 13.94 g/m*3 24.3 C 11.3 km/h
1392 01-07-2020 19:55:00 24.2 C 14.08 g/m*3 24.2 C 11.3 km/h
1393 01-07-2020 20:00:00 24.2 C 14.08 g/m*3 24.2 C 11.3 km/h
1394 01-07-2020 20:05:00 24.1 C 14 g/m*3 24.1 C 11.3 km/h
1395 01-07-2020 20:10:00 24.1 C 14 g/m*3 24.1 C 4.8 km/h
1396 01-07-2020 20:15:00 24.1 C 14.22 g/m*3 24.1 C 11.3 km/h
1397 01-07-2020 20:20:00 24.2 C 13.86 g/m*3 24.2 C 14.5 km/h
1398 01-07-2020 20:25:00 24.4 C 14.02 g/m*3 24.4 C 11.3 km/h
1399 01-07-2020 20:30:00 24.7 C 14.03 g/m*3 24.7 C 19.3 km/h
1400 01-07-2020 20:35:00 24.8 C 13.88 g/m*3 24.8 C 9.7 km/h
Sensor: Nr:Datum:Temp:Abs-Feuchte:Windchill:Wind:
Aussen-T/F 1401 01-07-2020 20:40:00 24.9 C 14.19 g/m*3 24.9 C 14.5 km/h
1402 01-07-2020 20:45:00 25 C 14.04 g/m*3 25 C 14.5 km/h
1403 01-07-2020 20:50:00 25.1 C 14.12 g/m*3 25.1 C 9.7 km/h
1404 01-07-2020 20:55:00 24.8 C 13.88 g/m*3 24.8 C 11.3 km/h
1405 01-07-2020 21:00:00 24.4 C 13.8 g/m*3 24.4 C 14.5 km/h
1406 01-07-2020 21:05:00 24.2 C 13.86 g/m*3 24.2 C 9.7 km/h
1407 01-07-2020 21:10:00 23.9 C 13.85 g/m*3 23.9 C 14.5 km/h
1408 01-07-2020 21:15:00 23.7 C 13.9 g/m*3 23.7 C 9.7 km/h
1409 01-07-2020 21:20:00 23.6 C 13.82 g/m*3 23.6 C 11.3 km/h
1410 01-07-2020 21:25:00 23.3 C 13.8 g/m*3 23.3 C 12.9 km/h
1411 01-07-2020 21:30:00 23.2 C 13.72 g/m*3 23.2 C 6.4 km/h
1412 01-07-2020 21:35:00 23 C 13.77 g/m*3 23 C 8.1 km/h
1413 01-07-2020 21:40:00 22.8 C 13.61 g/m*3 22.8 C 8.1 km/h
1414 01-07-2020 21:45:00 22.7 C 13.74 g/m*3 22.7 C 9.7 km/h
1415 01-07-2020 21:50:00 22.7 C 13.74 g/m*3 22.7 C 8.1 km/h
1416 01-07-2020 21:55:00 22.6 C 13.66 g/m*3 22.6 C 6.4 km/h
1417 01-07-2020 22:00:00 22.6 C 13.86 g/m*3 22.6 C 0 km/h
1418 01-07-2020 22:05:00 22.6 C 13.86 g/m*3 22.6 C 0 km/h
1419 01-07-2020 22:10:00 22.4 C 13.9 g/m*3 22.4 C 3.2 km/h
1420 01-07-2020 22:15:00 22.3 C 13.82 g/m*3 22.3 C 3.2 km/h
1421 01-07-2020 22:20:00 22.2 C 13.74 g/m*3 22.2 C 4.8 km/h
1422 01-07-2020 22:25:00 22.2 C 13.94 g/m*3 22.2 C 3.2 km/h
1423 01-07-2020 22:30:00 22.1 C 13.86 g/m*3 22.1 C 4.8 km/h
1424 01-07-2020 22:35:00 22 C 13.97 g/m*3 22 C 0 km/h
1425 01-07-2020 22:40:00 21.9 C 13.89 g/m*3 21.9 C 1.6 km/h
Sensor: Nr:Datum:Temp:Abs-Feuchte:Windchill:Wind:
Aussen-T/F 1426 01-07-2020 22:45:00 21.8 C 14.01 g/m*3 21.8 C 4.8 km/h
1427 01-07-2020 22:50:00 21.7 C 13.93 g/m*3 21.7 C 3.2 km/h
1428 01-07-2020 22:55:00 21.7 C 13.93 g/m*3 21.7 C 8.1 km/h
1429 01-07-2020 23:00:00 21.7 C 14.31 g/m*3 21.7 C 14.5 km/h
1430 01-07-2020 23:05:00 21.4 C 14.25 g/m*3 21.4 C 11.3 km/h
1431 01-07-2020 23:10:00 21 C 14.29 g/m*3 21 C 14.5 km/h
1432 01-07-2020 23:15:00 20.7 C 14.4 g/m*3 20.7 C 12.9 km/h
1433 01-07-2020 23:20:00 20.2 C 14.34 g/m*3 20.2 C 12.9 km/h
1434 01-07-2020 23:25:00 19.5 C 14.1 g/m*3 19.5 C 19.3 km/h
1435 01-07-2020 23:30:00 18.9 C 14.09 g/m*3 18.9 C 14.5 km/h
1436 01-07-2020 23:35:00 18.6 C 14.01 g/m*3 18.6 C 8.1 km/h
1437 01-07-2020 23:40:00 18.3 C 13.92 g/m*3 18.3 C 3.2 km/h
1438 01-07-2020 23:45:00 18.2 C 13.99 g/m*3 18.2 C 4.8 km/h
1439 01-07-2020 23:50:00 18.1 C 13.91 g/m*3 18.1 C 6.4 km/h
1440 01-07-2020 23:55:00 18 C 13.98 g/m*3 18 C 0 km/h

Legende:
   Min
   Max


Maximal/Minimal-Werte vom 27.06.2020 - 01.07.2020

Sensor Min Max Avg
Temp
(Aussen-T/F)
9.7 °C
30-06-2020  05:55:00
29.8 °C
27-06-2020  17:05:00
19.69 °C
Abs-Feuchte
(Aussen-T/F)
8.35 g/m*3
30-06-2020  05:40:00
15.83 g/m*3
27-06-2020  13:55:00
12.08 g/m*3
Windchill
(Aussen-T/F)
9.7 C
30-06-2020  05:55:00
29.8 C
27-06-2020  17:05:00
19.67 C

Die Daten stammen von einer Davis Vantage Pro 2 Wetter-Station und werden unter Linux mit der Software wview2wettercgi und aufbereitet. Alle Angaben erfolgen ohne Gewähr für ihre Vollständigkeit oder Richtigkeit.
Kontakt: Rainer Krienke krienke@uni-koblenz.de . Meine Webseiten an der Uni Koblenz oder privat.
Version: $Revision: 0.78 $